Time,TemperatureF,DewpointF,PressureIn,WindDirection,WindDirectionDegrees,WindSpeedMPH,WindSpeedGustMPH,Humidity,HourlyPrecipIn,Conditions,Clouds,dailyrainin,SoftwareType,DateUTC
2013-01-19 00:00:00,38.6,28.2,30.32,SW,229,4.0,6.0,66,0.00,,,0.02,Wunderground v.1.15,2013-01-19 05:00:00,
2013-01-19 00:02:00,38.6,28.2,30.32,SW,219,4.0,6.0,66,0.00,,,0.02,Wunderground v.1.15,2013-01-19 05:02:00,
2013-01-19 00:05:00,38.6,28.2,30.33,WSW,238,4.0,6.0,66,0.00,,,0.00,Wunderground v.1.15,2013-01-19 05:05:00,
2013-01-19 00:06:00,38.6,28.2,30.33,SW,229,10.0,10.0,66,0.00,,,0.00,Wunderground v.1.15,2013-01-19 05:06:00,
2013-01-19 00:10:00,38.7,28.3,30.32,SW,225,12.0,12.0,66,0.00,,,0.00,Wunderground v.1.15,2013-01-19 05:10:00,
2013-01-19 00:12:00,38.6,28.2,30.32,SW,230,6.0,12.0,66,0.00,,,0.00,Wunderground v.1.15,2013-01-19 05:12:00,
2013-01-19 00:16:00,38.6,28.2,30.32,SW,224,7.0,12.0,66,0.00,,,0.00,Wunderground v.1.15,2013-01-19 05:16:00,
2013-01-19 00:18:00,38.6,28.2,30.32,SW,230,3.0,12.0,66,0.00,,,0.00,Wunderground v.1.15,2013-01-19 05:18:00,
2013-01-19 00:22:00,38.6,27.8,30.32,SW,235,5.0,6.0,65,0.00,,,0.00,Wunderground v.1.15,2013-01-19 05:22:00,
2013-01-19 00:24:00,38.6,27.8,30.32,WSW,237,11.0,11.0,65,0.00,,,0.00,Wunderground v.1.15,2013-01-19 05:24:00,
2013-01-19 00:28:00,38.8,28.0,30.32,SW,232,8.0,12.0,65,0.00,,,0.00,Wunderground v.1.15,2013-01-19 05:28:00,
2013-01-19 00:30:00,38.9,28.1,30.32,SW,230,7.0,7.0,65,0.00,,,0.00,Wunderground v.1.15,2013-01-19 05:30:00,
2013-01-19 00:33:00,38.9,28.1,30.32,SSW,209,8.0,8.0,65,0.00,,,0.00,Wunderground v.1.15,2013-01-19 05:33:00,
2013-01-19 00:34:00,38.9,28.1,30.32,WSW,244,4.0,8.0,65,0.00,,,0.00,Wunderground v.1.15,2013-01-19 05:34:00,
2013-01-19 00:38:00,38.9,28.1,30.31,WSW,245,13.0,13.0,65,0.00,,,0.00,Wunderground v.1.15,2013-01-19 05:38:00,
2013-01-19 00:43:00,39.1,27.9,30.31,SSW,205,8.0,8.0,64,0.00,,,0.00,Wunderground v.1.15,2013-01-19 05:43:00,
2013-01-19 00:45:00,39.1,28.3,30.31,SSW,209,5.0,8.0,65,0.00,,,0.00,Wunderground v.1.15,2013-01-19 05:45:00,
2013-01-19 00:49:00,39.1,28.3,30.31,SSW,200,6.0,8.0,65,0.00,,,0.00,Wunderground v.1.15,2013-01-19 05:49:00,
2013-01-19 00:52:00,39.0,28.2,30.31,SW,222,4.0,6.0,65,0.00,,,0.00,Wunderground v.1.15,2013-01-19 05:52:00,
2013-01-19 00:53:00,38.9,28.1,30.31,South,184,11.0,11.0,65,0.00,,,0.00,Wunderground v.1.15,2013-01-19 05:53:00,
2013-01-19 00:58:00,39.0,28.2,30.31,SW,223,5.0,11.0,65,0.00,,,0.00,Wunderground v.1.15,2013-01-19 05:58:00,
2013-01-19 00:59:00,39.0,28.2,30.31,SW,217,5.0,11.0,65,0.00,,,0.00,Wunderground v.1.15,2013-01-19 05:59:00,
2013-01-19 01:01:00,39.0,28.2,30.30,SSW,205,6.0,6.0,65,0.00,,,0.00,Wunderground v.1.15,2013-01-19 06:01:00,
2013-01-19 01:02:00,39.0,28.2,30.31,SSW,213,3.0,6.0,65,0.00,,,0.00,Wunderground v.1.15,2013-01-19 06:02:00,
2013-01-19 01:07:00,38.9,28.1,30.30,South,190,6.0,10.0,65,0.00,,,0.00,Wunderground v.1.15,2013-01-19 06:07:00,
2013-01-19 01:09:00,38.9,28.1,30.30,SSW,200,18.0,18.0,65,0.00,,,0.00,Wunderground v.1.15,2013-01-19 06:09:00,
2013-01-19 01:10:00,39.0,28.2,30.30,SW,223,6.0,6.0,65,0.00,,,0.00,Wunderground v.1.15,2013-01-19 06:10:00,
2013-01-19 01:13:00,39.0,28.2,30.30,SSW,209,14.0,14.0,65,0.00,,,0.00,Wunderground v.1.15,2013-01-19 06:13:00,
2013-01-19 01:14:00,39.1,28.3,30.30,SW,224,5.0,14.0,65,0.00,,,0.00,Wunderground v.1.15,2013-01-19 06:14:00,
2013-01-19 01:19:00,39.2,28.4,30.30,South,178,9.0,14.0,65,0.00,,,0.00,Wunderground v.1.15,2013-01-19 06:19:00,
2013-01-19 01:22:00,39.2,28.4,30.30,SSW,200,6.0,7.0,65,0.00,,,0.00,Wunderground v.1.15,2013-01-19 06:22:00,
2013-01-19 01:23:00,39.2,28.4,30.30,SW,226,2.0,7.0,65,0.00,,,0.00,Wunderground v.1.15,2013-01-19 06:23:00,
2013-01-19 01:24:00,39.2,28.4,30.30,SSW,210,12.0,12.0,65,0.00,,,0.00,Wunderground v.1.15,2013-01-19 06:24:00,
2013-01-19 01:27:00,39.3,28.5,30.30,WSW,237,8.0,12.0,65,0.00,,,0.00,Wunderground v.1.15,2013-01-19 06:27:00,
2013-01-19 01:28:00,39.3,28.5,30.30,SW,218,4.0,12.0,65,0.00,,,0.00,Wunderground v.1.15,2013-01-19 06:28:00,
2013-01-19 01:32:00,39.3,28.5,30.30,SW,234,5.0,11.0,65,0.00,,,0.00,Wunderground v.1.15,2013-01-19 06:32:00,
2013-01-19 01:33:00,39.3,28.5,30.30,SSW,205,3.0,11.0,65,0.00,,,0.00,Wunderground v.1.15,2013-01-19 06:33:00,
2013-01-19 01:35:00,39.2,28.4,30.30,WSW,254,6.0,11.0,65,0.00,,,0.00,Wunderground v.1.15,2013-01-19 06:35:00,
2013-01-19 01:39:00,39.2,28.4,30.29,SSW,195,10.0,13.0,65,0.00,,,0.00,Wunderground v.1.15,2013-01-19 06:39:00,
2013-01-19 01:40:00,39.2,28.4,30.30,SW,214,6.0,7.0,65,0.00,,,0.00,Wunderground v.1.15,2013-01-19 06:40:00,
2013-01-19 01:42:00,39.2,28.4,30.29,SW,223,9.0,9.0,65,0.00,,,0.00,Wunderground v.1.15,2013-01-19 06:42:00,
2013-01-19 01:44:00,39.3,28.5,30.30,SW,231,6.0,11.0,65,0.00,,,0.00,Wunderground v.1.15,2013-01-19 06:44:00,
2013-01-19 01:46:00,39.3,28.5,30.30,SW,231,11.0,11.0,65,0.00,,,0.00,Wunderground v.1.15,2013-01-19 06:46:00,
2013-01-19 01:48:00,39.4,28.2,30.29,SW,228,6.0,11.0,64,0.00,,,0.00,Wunderground v.1.15,2013-01-19 06:48:00,
2013-01-19 01:50:00,39.4,28.2,30.29,SW,232,7.0,9.0,64,0.00,,,0.00,Wunderground v.1.15,2013-01-19 06:50:00,
2013-01-19 01:51:00,39.4,28.2,30.30,SW,215,11.0,11.0,64,0.00,,,0.00,Wunderground v.1.15,2013-01-19 06:51:00,
2013-01-19 01:52:00,39.4,28.2,30.29,SW,215,6.0,11.0,64,0.00,,,0.00,Wunderground v.1.15,2013-01-19 06:52:00,
2013-01-19 01:55:00,39.4,28.2,30.29,SW,217,12.0,12.0,64,0.00,,,0.00,Wunderground v.1.15,2013-01-19 06:55:00,
2013-01-19 01:56:00,39.4,28.2,30.30,SW,217,5.0,12.0,64,0.00,,,0.00,Wunderground v.1.15,2013-01-19 06:56:00,
2013-01-19 01:58:00,39.4,28.2,30.29,SW,232,11.0,12.0,64,0.00,,,0.00,Wunderground v.1.15,2013-01-19 06:58:00,
2013-01-19 01:59:00,39.4,28.2,30.29,SSW,213,9.0,12.0,64,0.00,,,0.00,Wunderground v.1.15,2013-01-19 06:59:00,
2013-01-19 02:01:00,39.4,28.2,30.29,SSW,200,10.0,11.0,64,0.00,,,0.00,Wunderground v.1.15,2013-01-19 07:01:00,
2013-01-19 02:03:00,39.4,28.2,30.29,SW,214,5.0,13.0,64,0.00,,,0.00,Wunderground v.1.15,2013-01-19 07:03:00,
2013-01-19 02:04:00,39.4,28.2,30.29,SW,228,6.0,13.0,64,0.00,,,0.00,Wunderground v.1.15,2013-01-19 07:04:00,
2013-01-19 02:06:00,39.5,28.3,30.29,SW,215,4.0,17.0,64,0.00,,,0.00,Wunderground v.1.15,2013-01-19 07:06:00,
2013-01-19 02:08:00,39.5,28.3,30.29,SW,234,6.0,17.0,64,0.00,,,0.00,Wunderground v.1.15,2013-01-19 07:08:00,
2013-01-19 02:09:00,39.5,28.3,30.29,South,184,6.0,17.0,64,0.00,,,0.00,Wunderground v.1.15,2013-01-19 07:09:00,
2013-01-19 02:11:00,39.5,28.3,30.29,SW,214,4.0,14.0,64,0.00,,,0.00,Wunderground v.1.15,2013-01-19 07:11:00,
2013-01-19 02:12:00,39.5,28.3,30.29,SSW,211,9.0,14.0,64,0.00,,,0.00,Wunderground v.1.15,2013-01-19 07:12:00,
2013-01-19 02:13:00,39.5,28.3,30.29,SSW,195,10.0,20.0,64,0.00,,,0.00,Wunderground v.1.15,2013-01-19 07:13:00,
2013-01-19 02:14:00,39.5,28.3,30.29,SW,215,6.0,20.0,64,0.00,,,0.00,Wunderground v.1.15,2013-01-19 07:14:00,
2013-01-19 02:16:00,39.6,28.4,30.29,SW,214,12.0,20.0,64,0.00,,,0.00,Wunderground v.1.15,2013-01-19 07:16:00,
2013-01-19 02:18:00,39.6,28.4,30.29,SW,230,7.0,20.0,64,0.00,,,0.00,Wunderground v.1.15,2013-01-19 07:18:00,
2013-01-19 02:19:00,39.6,28.4,30.29,SW,236,10.0,20.0,64,0.00,,,0.00,Wunderground v.1.15,2013-01-19 07:19:00,
2013-01-19 02:22:00,39.6,28.4,30.29,SW,219,3.0,12.0,64,0.00,,,0.00,Wunderground v.1.15,2013-01-19 07:22:00,
2013-01-19 02:23:00,39.6,28.4,30.29,SW,224,7.0,12.0,64,0.00,,,0.00,Wunderground v.1.15,2013-01-19 07:23:00,
2013-01-19 02:24:00,39.6,28.4,30.29,WSW,251,9.0,12.0,64,0.00,,,0.00,Wunderground v.1.15,2013-01-19 07:24:00,
2013-01-19 02:27:00,39.6,28.4,30.29,WSW,251,2.0,14.0,64,0.00,,,0.00,Wunderground v.1.15,2013-01-19 07:27:00,
2013-01-19 02:28:00,39.6,28.4,30.29,SSW,212,8.0,14.0,64,0.00,,,0.00,Wunderground v.1.15,2013-01-19 07:28:00,
2013-01-19 02:29:00,39.6,28.4,30.29,SW,219,6.0,14.0,64,0.00,,,0.00,Wunderground v.1.15,2013-01-19 07:29:00,
2013-01-19 02:32:00,39.6,28.4,30.29,South,190,6.0,13.0,64,0.00,,,0.00,Wunderground v.1.15,2013-01-19 07:32:00,
2013-01-19 02:33:00,39.5,28.3,30.29,SSW,212,7.0,14.0,64,0.00,,,0.00,Wunderground v.1.15,2013-01-19 07:33:00,
2013-01-19 02:34:00,39.6,28.4,30.29,SW,233,5.0,14.0,64,0.00,,,0.00,Wunderground v.1.15,2013-01-19 07:34:00,
2013-01-19 02:37:00,39.5,28.3,30.29,SW,217,2.0,14.0,64,0.00,,,0.00,Wunderground v.1.15,2013-01-19 07:37:00,
2013-01-19 02:38:00,39.5,28.3,30.30,WSW,252,5.0,14.0,64,0.00,,,0.00,Wunderground v.1.15,2013-01-19 07:38:00,
2013-01-19 02:39:00,39.5,28.3,30.29,SSW,200,3.0,14.0,64,0.00,,,0.00,Wunderground v.1.15,2013-01-19 07:39:00,
2013-01-19 02:42:00,39.4,28.2,30.29,SSW,195,10.0,12.0,64,0.00,,,0.00,Wunderground v.1.15,2013-01-19 07:42:00,
2013-01-19 02:44:00,39.4,28.2,30.29,WSW,249,5.0,12.0,64,0.00,,,0.00,Wunderground v.1.15,2013-01-19 07:44:00,
2013-01-19 02:45:00,39.3,28.1,30.29,SW,222,16.0,16.0,64,0.00,,,0.00,Wunderground v.1.15,2013-01-19 07:45:00,
2013-01-19 02:47:00,39.3,28.1,30.29,SSW,200,4.0,16.0,64,0.00,,,0.00,Wunderground v.1.15,2013-01-19 07:47:00,
2013-01-19 02:49:00,39.3,28.1,30.29,SW,224,12.0,16.0,64,0.00,,,0.00,Wunderground v.1.15,2013-01-19 07:49:00,
2013-01-19 02:50:00,39.3,28.1,30.29,SSW,195,3.0,7.0,64,0.00,,,0.00,Wunderground v.1.15,2013-01-19 07:50:00,
2013-01-19 02:52:00,39.3,28.1,30.29,South,182,10.0,13.0,64,0.00,,,0.00,Wunderground v.1.15,2013-01-19 07:52:00,
2013-01-19 02:54:00,39.3,28.1,30.29,South,177,5.0,13.0,64,0.00,,,0.00,Wunderground v.1.15,2013-01-19 07:54:00,
2013-01-19 02:55:00,39.3,28.1,30.29,SW,221,2.0,13.0,64,0.00,,,0.00,Wunderground v.1.15,2013-01-19 07:55:00,
2013-01-19 02:58:00,39.3,28.1,30.29,SSW,195,4.0,14.0,64,0.00,,,0.00,Wunderground v.1.15,2013-01-19 07:58:00,
2013-01-19 02:59:00,39.3,28.1,30.29,SW,214,7.0,14.0,64,0.00,,,0.00,Wunderground v.1.15,2013-01-19 07:59:00,
2013-01-19 03:00:00,39.2,28.0,30.29,SSW,195,5.0,12.0,64,0.00,,,0.00,Wunderground v.1.15,2013-01-19 08:00:00,
2013-01-19 03:03:00,39.3,28.1,30.29,SSW,205,9.0,14.0,64,0.00,,,0.00,Wunderground v.1.15,2013-01-19 08:03:00,
2013-01-19 03:04:00,39.3,28.1,30.29,South,191,5.0,14.0,64,0.00,,,0.00,Wunderground v.1.15,2013-01-19 08:04:00,
2013-01-19 03:05:00,39.3,28.1,30.29,SSW,209,6.0,14.0,64,0.00,,,0.00,Wunderground v.1.15,2013-01-19 08:05:00,
2013-01-19 03:06:00,39.3,28.1,30.29,SSW,195,7.0,14.0,64,0.00,,,0.00,Wunderground v.1.15,2013-01-19 08:06:00,
2013-01-19 03:08:00,39.3,28.1,30.29,SSW,211,14.0,14.0,64,0.00,,,0.00,Wunderground v.1.15,2013-01-19 08:08:00,
2013-01-19 03:09:00,39.3,28.1,30.29,SSW,200,6.0,14.0,64,0.00,,,0.00,Wunderground v.1.15,2013-01-19 08:09:00,
2013-01-19 03:10:00,39.3,28.1,30.29,SSW,205,6.0,7.0,64,0.00,,,0.00,Wunderground v.1.15,2013-01-19 08:10:00,
2013-01-19 03:11:00,39.4,28.2,30.29,SW,223,7.0,9.0,64,0.00,,,0.00,Wunderground v.1.15,2013-01-19 08:11:00,
2013-01-19 03:13:00,39.3,28.1,30.29,SW,232,7.0,13.0,64,0.00,,,0.00,Wunderground v.1.15,2013-01-19 08:13:00,
2013-01-19 03:15:00,39.4,28.2,30.29,South,173,2.0,13.0,64,0.00,,,0.00,Wunderground v.1.15,2013-01-19 08:15:00,
2013-01-19 03:16:00,39.4,28.2,30.29,SW,228,4.0,14.0,64,0.00,,,0.00,Wunderground v.1.15,2013-01-19 08:16:00,
2013-01-19 03:18:00,39.4,28.2,30.29,SSW,205,4.0,14.0,64,0.00,,,0.00,Wunderground v.1.15,2013-01-19 08:18:00,
2013-01-19 03:20:00,39.4,28.2,30.29,SW,217,4.0,6.0,64,0.00,,,0.00,Wunderground v.1.15,2013-01-19 08:20:00,
2013-01-19 03:21:00,39.4,28.2,30.29,SW,218,4.0,8.0,64,0.00,,,0.00,Wunderground v.1.15,2013-01-19 08:21:00,
2013-01-19 03:23:00,39.4,28.2,30.29,SSW,195,4.0,14.0,64,0.00,,,0.00,Wunderground v.1.15,2013-01-19 08:23:00,
2013-01-19 03:25:00,39.4,28.2,30.29,SSW,205,11.0,14.0,64,0.00,,,0.00,Wunderground v.1.15,2013-01-19 08:25:00,
2013-01-19 03:26:00,39.4,28.2,30.29,SW,224,2.0,14.0,64,0.00,,,0.00,Wunderground v.1.15,2013-01-19 08:26:00,
2013-01-19 03:29:00,39.4,28.2,30.29,WSW,246,5.0,14.0,64,0.00,,,0.00,Wunderground v.1.15,2013-01-19 08:29:00,
2013-01-19 03:30:00,39.5,28.3,30.29,SSW,200,4.0,7.0,64,0.00,,,0.00,Wunderground v.1.15,2013-01-19 08:30:00,
2013-01-19 03:31:00,39.5,28.3,30.29,SSW,212,6.0,7.0,64,0.00,,,0.00,Wunderground v.1.15,2013-01-19 08:31:00,
2013-01-19 03:32:00,39.5,28.3,30.29,SSW,200,4.0,7.0,64,0.00,,,0.00,Wunderground v.1.15,2013-01-19 08:32:00,
2013-01-19 03:34:00,39.5,28.3,30.29,South,189,7.0,9.0,64,0.00,,,0.00,Wunderground v.1.15,2013-01-19 08:34:00,
2013-01-19 03:36:00,39.5,28.3,30.29,SSW,195,1.0,9.0,64,0.00,,,0.00,Wunderground v.1.15,2013-01-19 08:36:00,
2013-01-19 03:37:00,39.4,28.2,30.29,SSW,195,0.0,9.0,64,0.00,,,0.00,Wunderground v.1.15,2013-01-19 08:37:00,
2013-01-19 03:39:00,39.4,28.2,30.29,SW,224,3.0,9.0,64,0.00,,,0.00,Wunderground v.1.15,2013-01-19 08:39:00,
2013-01-19 03:41:00,39.3,28.1,30.29,SW,219,2.0,5.0,64,0.00,,,0.00,Wunderground v.1.15,2013-01-19 08:41:00,
2013-01-19 03:42:00,39.3,28.1,30.29,SSW,209,4.0,7.0,64,0.00,,,0.00,Wunderground v.1.15,2013-01-19 08:42:00,
2013-01-19 03:44:00,39.3,28.1,30.29,SSW,195,0.0,7.0,64,0.00,,,0.00,Wunderground v.1.15,2013-01-19 08:44:00,
2013-01-19 03:46:00,39.2,28.0,30.29,SSW,195,0.0,7.0,64,0.00,,,0.00,Wunderground v.1.15,2013-01-19 08:46:00,
2013-01-19 03:47:00,39.2,28.0,30.29,SSW,195,0.0,7.0,64,0.00,,,0.00,Wunderground v.1.15,2013-01-19 08:47:00,
2013-01-19 03:49:00,39.1,27.9,30.29,SSW,213,3.0,7.0,64,0.00,,,0.00,Wunderground v.1.15,2013-01-19 08:49:00,
2013-01-19 03:51:00,39.0,27.8,30.29,SW,234,3.0,6.0,64,0.00,,,0.00,Wunderground v.1.15,2013-01-19 08:51:00,
2013-01-19 03:52:00,39.0,27.8,30.29,SW,233,3.0,6.0,64,0.00,,,0.00,Wunderground v.1.15,2013-01-19 08:52:00,
2013-01-19 03:54:00,38.9,28.1,30.29,SW,236,2.0,10.0,65,0.00,,,0.00,Wunderground v.1.15,2013-01-19 08:54:00,
2013-01-19 03:56:00,38.8,28.0,30.29,SW,236,0.0,10.0,65,0.00,,,0.00,Wunderground v.1.15,2013-01-19 08:56:00,
2013-01-19 03:57:00,38.8,28.0,30.29,SW,236,0.0,10.0,65,0.00,,,0.00,Wunderground v.1.15,2013-01-19 08:57:00,
2013-01-19 04:00:00,38.7,27.9,30.29,SW,214,2.0,3.0,65,0.00,,,0.00,Wunderground v.1.15,2013-01-19 09:00:00,
2013-01-19 04:02:00,38.7,27.9,30.28,SW,214,0.0,3.0,65,0.00,,,0.00,Wunderground v.1.15,2013-01-19 09:02:00,
2013-01-19 04:05:00,38.6,27.8,30.28,SW,214,2.0,3.0,65,0.00,,,0.00,Wunderground v.1.15,2013-01-19 09:05:00,
2013-01-19 04:06:00,38.5,27.7,30.28,SW,235,4.0,5.0,65,0.00,,,0.00,Wunderground v.1.15,2013-01-19 09:06:00,
2013-01-19 04:07:00,38.5,27.7,30.28,SW,235,3.0,5.0,65,0.00,,,0.00,Wunderground v.1.15,2013-01-19 09:07:00,
2013-01-19 04:08:00,38.5,27.7,30.28,SW,235,0.0,5.0,65,0.00,,,0.00,Wunderground v.1.15,2013-01-19 09:08:00,
2013-01-19 04:10:00,38.4,27.7,30.28,SW,235,3.0,3.0,65,0.00,,,0.00,Wunderground v.1.15,2013-01-19 09:10:00,
2013-01-19 04:12:00,38.4,27.7,30.28,SW,235,0.0,4.0,65,0.00,,,0.00,Wunderground v.1.15,2013-01-19 09:12:00,
2013-01-19 04:13:00,38.3,27.6,30.28,SW,235,0.0,4.0,65,0.00,,,0.00,Wunderground v.1.15,2013-01-19 09:13:00,
2013-01-19 04:15:00,38.2,27.5,30.28,SW,232,2.0,4.0,65,0.00,,,0.00,Wunderground v.1.15,2013-01-19 09:15:00,
2013-01-19 04:17:00,38.2,27.8,30.28,SW,230,2.0,5.0,66,0.00,,,0.00,Wunderground v.1.15,2013-01-19 09:17:00,
2013-01-19 04:18:00,38.2,27.8,30.28,SW,230,1.0,5.0,66,0.00,,,0.00,Wunderground v.1.15,2013-01-19 09:18:00,
2013-01-19 04:20:00,38.1,27.7,30.28,SW,229,1.0,4.0,66,0.00,,,0.00,Wunderground v.1.15,2013-01-19 09:20:00,
2013-01-19 04:22:00,38.0,27.6,30.28,SW,230,0.0,4.0,66,0.00,,,0.00,Wunderground v.1.15,2013-01-19 09:22:00,
2013-01-19 04:23:00,38.0,27.6,30.28,SW,229,3.0,4.0,66,0.00,,,0.00,Wunderground v.1.15,2013-01-19 09:23:00,
2013-01-19 04:25:00,37.9,27.5,30.28,SW,230,0.0,5.0,66,0.00,,,0.00,Wunderground v.1.15,2013-01-19 09:25:00,
2013-01-19 04:27:00,37.9,27.5,30.28,SW,232,2.0,7.0,66,0.00,,,0.00,Wunderground v.1.15,2013-01-19 09:27:00,
2013-01-19 04:28:00,37.9,27.5,30.28,SW,232,2.0,7.0,66,0.00,,,0.00,Wunderground v.1.15,2013-01-19 09:28:00,
2013-01-19 04:30:00,37.9,27.5,30.28,SW,232,0.0,2.0,66,0.00,,,0.00,Wunderground v.1.15,2013-01-19 09:30:00,
2013-01-19 04:32:00,37.8,27.5,30.28,SW,232,0.0,2.0,66,0.00,,,0.00,Wunderground v.1.15,2013-01-19 09:32:00,
2013-01-19 04:33:00,37.8,27.5,30.28,SW,232,3.0,4.0,66,0.00,,,0.00,Wunderground v.1.15,2013-01-19 09:33:00,
2013-01-19 04:35:00,37.8,27.5,30.28,SW,232,0.0,4.0,66,0.00,,,0.00,Wunderground v.1.15,2013-01-19 09:35:00,
2013-01-19 04:38:00,37.8,27.5,30.28,SW,232,0.0,4.0,66,0.00,,,0.00,Wunderground v.1.15,2013-01-19 09:38:00,
2013-01-19 04:40:00,37.7,27.7,30.28,SW,232,0.0,4.0,67,0.00,,,0.00,Wunderground v.1.15,2013-01-19 09:40:00,
2013-01-19 04:43:00,37.7,27.4,30.28,SW,232,2.0,4.0,66,0.00,,,0.00,Wunderground v.1.15,2013-01-19 09:43:00,
2013-01-19 04:45:00,37.7,27.7,30.28,SW,232,3.0,4.0,67,0.00,,,0.00,Wunderground v.1.15,2013-01-19 09:45:00,
2013-01-19 04:48:00,37.7,27.7,30.28,SW,232,1.0,4.0,67,0.00,,,0.00,Wunderground v.1.15,2013-01-19 09:48:00,
2013-01-19 04:49:00,37.7,27.4,30.28,SW,232,0.0,4.0,66,0.00,,,0.00,Wunderground v.1.15,2013-01-19 09:49:00,
2013-01-19 04:51:00,37.7,27.4,30.28,SW,232,2.0,3.0,66,0.00,,,0.00,Wunderground v.1.15,2013-01-19 09:51:00,
2013-01-19 04:53:00,37.7,27.7,30.28,SW,232,1.0,4.0,67,0.00,,,0.00,Wunderground v.1.15,2013-01-19 09:53:00,
2013-01-19 04:54:00,37.7,27.7,30.28,SW,232,4.0,4.0,67,0.00,,,0.00,Wunderground v.1.15,2013-01-19 09:54:00,
2013-01-19 04:56:00,37.6,27.6,30.28,SW,232,1.0,4.0,67,0.00,,,0.00,Wunderground v.1.15,2013-01-19 09:56:00,
2013-01-19 04:58:00,37.6,27.6,30.28,SW,232,3.0,4.0,67,0.00,,,0.00,Wunderground v.1.15,2013-01-19 09:58:00,
2013-01-19 04:59:00,37.5,27.5,30.28,SW,232,0.0,4.0,67,0.00,,,0.00,Wunderground v.1.15,2013-01-19 09:59:00,
2013-01-19 05:01:00,37.4,27.4,30.28,SW,232,0.0,3.0,67,0.00,,,0.00,Wunderground v.1.15,2013-01-19 10:01:00,
2013-01-19 05:03:00,37.3,27.3,30.28,SW,232,1.0,3.0,67,0.00,,,0.00,Wunderground v.1.15,2013-01-19 10:03:00,
2013-01-19 05:04:00,37.3,27.3,30.28,SW,232,0.0,3.0,67,0.00,,,0.00,Wunderground v.1.15,2013-01-19 10:04:00,
2013-01-19 05:05:00,37.3,27.3,30.28,SW,232,0.0,3.0,67,0.00,,,0.00,Wunderground v.1.15,2013-01-19 10:05:00,
2013-01-19 05:06:00,37.3,27.3,30.28,SW,232,0.0,3.0,67,0.00,,,0.00,Wunderground v.1.15,2013-01-19 10:06:00,
2013-01-19 05:08:00,37.2,27.2,30.28,SW,232,1.0,3.0,67,0.00,,,0.00,Wunderground v.1.15,2013-01-19 10:08:00,
2013-01-19 05:09:00,37.1,27.5,30.28,SW,232,2.0,3.0,68,0.00,,,0.00,Wunderground v.1.15,2013-01-19 10:09:00,
2013-01-19 05:10:00,37.1,27.5,30.28,SW,232,3.0,3.0,68,0.00,,,0.00,Wunderground v.1.15,2013-01-19 10:10:00,
2013-01-19 05:11:00,37.1,27.5,30.28,SW,232,4.0,4.0,68,0.00,,,0.00,Wunderground v.1.15,2013-01-19 10:11:00,
2013-01-19 05:14:00,37.1,27.5,30.28,SW,229,4.0,6.0,68,0.00,,,0.00,Wunderground v.1.15,2013-01-19 10:14:00,
2013-01-19 05:15:00,37.1,27.5,30.28,SW,229,0.0,6.0,68,0.00,,,0.00,Wunderground v.1.15,2013-01-19 10:15:00,
2013-01-19 05:16:00,37.1,27.5,30.28,SW,225,3.0,6.0,68,0.00,,,0.00,Wunderground v.1.15,2013-01-19 10:16:00,
2013-01-19 05:19:00,37.3,27.7,30.28,SW,225,3.0,6.0,68,0.00,,,0.00,Wunderground v.1.15,2013-01-19 10:19:00,
2013-01-19 05:20:00,37.3,27.7,30.28,SW,226,1.0,3.0,68,0.00,,,0.00,Wunderground v.1.15,2013-01-19 10:20:00,
2013-01-19 05:23:00,37.3,27.7,30.28,SW,226,5.0,6.0,68,0.00,,,0.00,Wunderground v.1.15,2013-01-19 10:23:00,
2013-01-19 05:24:00,37.4,27.8,30.28,SW,228,3.0,6.0,68,0.00,,,0.00,Wunderground v.1.15,2013-01-19 10:24:00,
2013-01-19 05:25:00,37.4,27.8,30.28,SW,230,0.0,7.0,68,0.00,,,0.00,Wunderground v.1.15,2013-01-19 10:25:00,
2013-01-19 05:28:00,37.6,28.0,30.28,SW,224,5.0,7.0,68,0.00,,,0.00,Wunderground v.1.15,2013-01-19 10:28:00,
2013-01-19 05:29:00,37.6,28.0,30.27,SW,224,1.0,7.0,68,0.00,,,0.00,Wunderground v.1.15,2013-01-19 10:29:00,
2013-01-19 05:30:00,37.7,28.1,30.27,SSW,205,5.0,11.0,68,0.00,,,0.00,Wunderground v.1.15,2013-01-19 10:30:00,
2013-01-19 05:33:00,37.9,27.9,30.28,SW,214,5.0,6.0,67,0.00,,,0.00,Wunderground v.1.15,2013-01-19 10:33:00,
2013-01-19 05:34:00,38.0,28.0,30.28,SW,227,2.0,7.0,67,0.00,,,0.00,Wunderground v.1.15,2013-01-19 10:34:00,
2013-01-19 05:35:00,38.0,28.0,30.28,SW,227,3.0,7.0,67,0.00,,,0.00,Wunderground v.1.15,2013-01-19 10:35:00,
2013-01-19 05:38:00,38.1,28.1,30.27,SW,233,3.0,7.0,67,0.00,,,0.00,Wunderground v.1.15,2013-01-19 10:38:00,
2013-01-19 05:40:00,38.1,28.1,30.27,SW,231,2.0,3.0,67,0.00,,,0.00,Wunderground v.1.15,2013-01-19 10:40:00,
2013-01-19 05:43:00,38.1,28.1,30.27,SW,231,2.0,3.0,67,0.00,,,0.00,Wunderground v.1.15,2013-01-19 10:43:00,
2013-01-19 05:45:00,38.1,28.1,30.27,SW,226,1.0,9.0,67,0.00,,,0.00,Wunderground v.1.15,2013-01-19 10:45:00,
2013-01-19 05:46:00,38.1,28.1,30.27,SW,227,1.0,9.0,67,0.00,,,0.00,Wunderground v.1.15,2013-01-19 10:46:00,
2013-01-19 05:48:00,38.1,28.1,30.27,SW,225,3.0,9.0,67,0.00,,,0.00,Wunderground v.1.15,2013-01-19 10:48:00,
2013-01-19 05:50:00,38.1,28.1,30.27,SW,230,3.0,3.0,67,0.00,,,0.00,Wunderground v.1.15,2013-01-19 10:50:00,
2013-01-19 05:52:00,38.1,28.1,30.27,SW,221,4.0,5.0,67,0.00,,,0.00,Wunderground v.1.15,2013-01-19 10:52:00,
2013-01-19 05:53:00,38.1,28.1,30.27,SW,215,5.0,6.0,67,0.00,,,0.00,Wunderground v.1.15,2013-01-19 10:53:00,
2013-01-19 05:55:00,38.1,28.1,30.27,SW,226,4.0,7.0,67,0.00,,,0.00,Wunderground v.1.15,2013-01-19 10:55:00,
2013-01-19 05:56:00,38.2,28.2,30.27,SW,225,3.0,7.0,67,0.00,,,0.00,Wunderground v.1.15,2013-01-19 10:56:00,
2013-01-19 05:57:00,38.2,27.8,30.27,SSW,205,1.0,10.0,66,0.00,,,0.00,Wunderground v.1.15,2013-01-19 10:57:00,
2013-01-19 05:59:00,38.3,27.9,30.27,SSW,205,3.0,10.0,66,0.00,,,0.00,Wunderground v.1.15,2013-01-19 10:59:00,
2013-01-19 06:00:00,38.3,27.9,30.28,SSW,205,5.0,5.0,66,0.00,,,0.00,Wunderground v.1.15,2013-01-19 11:00:00,
2013-01-19 06:02:00,38.3,27.9,30.27,SW,221,3.0,6.0,66,0.00,,,0.00,Wunderground v.1.15,2013-01-19 11:02:00,
2013-01-19 06:03:00,38.3,27.9,30.27,SSW,213,4.0,9.0,66,0.00,,,0.00,Wunderground v.1.15,2013-01-19 11:03:00,
2013-01-19 06:04:00,38.3,27.9,30.27,SW,218,7.0,9.0,66,0.00,,,0.00,Wunderground v.1.15,2013-01-19 11:04:00,
2013-01-19 06:05:00,38.4,28.0,30.27,SW,231,2.0,9.0,66,0.00,,,0.00,Wunderground v.1.15,2013-01-19 11:05:00,
2013-01-19 06:07:00,38.4,28.0,30.27,SW,232,1.0,9.0,66,0.00,,,0.00,Wunderground v.1.15,2013-01-19 11:07:00,
2013-01-19 06:08:00,38.4,28.0,30.27,SW,229,2.0,9.0,66,0.00,,,0.00,Wunderground v.1.15,2013-01-19 11:08:00,
2013-01-19 06:09:00,38.4,28.0,30.27,SW,228,4.0,9.0,66,0.00,,,0.00,Wunderground v.1.15,2013-01-19 11:09:00,
2013-01-19 06:10:00,38.4,28.0,30.27,SW,227,3.0,6.0,66,0.00,,,0.00,Wunderground v.1.15,2013-01-19 11:10:00,
2013-01-19 06:12:00,38.4,28.0,30.27,SW,228,2.0,6.0,66,0.00,,,0.00,Wunderground v.1.15,2013-01-19 11:12:00,
2013-01-19 06:13:00,38.5,28.1,30.27,SW,226,2.0,6.0,66,0.00,,,0.00,Wunderground v.1.15,2013-01-19 11:13:00,
2013-01-19 07:48:00,37.1,27.9,30.27,SW,232,5.0,10.0,69,0.00,,,0.00,Wunderground v.1.15,2013-01-19 12:48:00,
2013-01-19 07:53:00,37.3,28.1,30.27,SW,224,4.0,7.0,69,0.00,,,0.00,Wunderground v.1.15,2013-01-19 12:53:00,
2013-01-19 07:58:00,37.5,28.2,30.27,SW,223,6.0,11.0,69,0.00,,,0.00,Wunderground v.1.15,2013-01-19 12:58:00,
2013-01-19 08:03:00,37.5,28.2,30.27,SW,228,6.0,7.0,69,0.00,,,0.00,Wunderground v.1.15,2013-01-19 13:03:00,
2013-01-19 08:04:00,37.6,28.3,30.27,SW,224,8.0,12.0,69,0.00,,,0.00,Wunderground v.1.15,2013-01-19 13:04:00,
2013-01-19 08:08:00,37.7,28.4,30.27,SW,216,3.0,12.0,69,0.00,,,0.00,Wunderground v.1.15,2013-01-19 13:08:00,
2013-01-19 08:09:00,37.7,28.4,30.27,SW,215,5.0,12.0,69,0.00,,,0.00,Wunderground v.1.15,2013-01-19 13:09:00,
2013-01-19 08:13:00,37.7,28.1,30.26,SSW,209,2.0,13.0,68,0.00,,,0.00,Wunderground v.1.15,2013-01-19 13:13:00,
2013-01-19 08:14:00,37.7,28.1,30.27,SSW,210,4.0,13.0,68,0.00,,,0.00,Wunderground v.1.15,2013-01-19 13:14:00,
2013-01-19 08:18:00,37.8,28.2,30.26,SW,219,5.0,13.0,68,0.00,,,0.00,Wunderground v.1.15,2013-01-19 13:18:00,
2013-01-19 08:19:00,37.7,28.1,30.26,SW,220,1.0,13.0,68,0.00,,,0.00,Wunderground v.1.15,2013-01-19 13:19:00,
2013-01-19 08:23:00,37.8,28.2,30.26,SSW,210,5.0,13.0,68,0.00,,,0.00,Wunderground v.1.15,2013-01-19 13:23:00,
2013-01-19 08:24:00,37.8,28.2,30.26,SSW,209,4.0,13.0,68,0.00,,,0.00,Wunderground v.1.15,2013-01-19 13:24:00,
2013-01-19 08:28:00,37.7,28.1,30.26,South,186,9.0,13.0,68,0.00,,,0.00,Wunderground v.1.15,2013-01-19 13:28:00,
2013-01-19 08:29:00,37.7,28.1,30.26,SSW,210,6.0,13.0,68,0.00,,,0.00,Wunderground v.1.15,2013-01-19 13:29:00,
2013-01-19 08:34:00,37.8,28.2,30.26,SW,233,4.0,11.0,68,0.00,,,0.00,Wunderground v.1.15,2013-01-19 13:34:00,
2013-01-19 08:39:00,38.0,28.4,30.26,SSW,209,2.0,17.0,68,0.00,,,0.00,Wunderground v.1.15,2013-01-19 13:39:00,
2013-01-19 08:44:00,38.2,28.6,30.26,SSW,195,7.0,13.0,68,0.00,,,0.00,Wunderground v.1.15,2013-01-19 13:44:00,
2013-01-19 08:45:00,38.2,28.6,30.26,SW,236,8.0,13.0,68,0.00,,,0.00,Wunderground v.1.15,2013-01-19 13:45:00,
2013-01-19 08:49:00,38.5,28.9,30.26,SSW,195,4.0,13.0,68,0.00,,,0.00,Wunderground v.1.15,2013-01-19 13:49:00,
2013-01-19 08:50:00,38.6,28.9,30.26,SW,224,5.0,7.0,68,0.00,,,0.00,Wunderground v.1.15,2013-01-19 13:50:00,
2013-01-19 08:54:00,38.7,28.7,30.26,SW,228,7.0,12.0,67,0.00,,,0.00,Wunderground v.1.15,2013-01-19 13:54:00,
2013-01-19 08:55:00,38.7,28.7,30.26,SW,229,5.0,12.0,67,0.00,,,0.00,Wunderground v.1.15,2013-01-19 13:55:00,
2013-01-19 08:59:00,38.9,28.9,30.26,SW,226,5.0,17.0,67,0.00,,,0.00,Wunderground v.1.15,2013-01-19 13:59:00,
2013-01-19 09:00:00,38.9,28.9,30.26,SW,226,11.0,11.0,67,0.00,,,0.00,Wunderground v.1.15,2013-01-19 14:00:00,
2013-01-19 09:04:00,39.1,29.1,30.26,SW,222,6.0,14.0,67,0.00,,,0.00,Wunderground v.1.15,2013-01-19 14:04:00,
2013-01-19 09:05:00,39.1,29.1,30.26,SW,229,10.0,14.0,67,0.00,,,0.00,Wunderground v.1.15,2013-01-19 14:05:00,
2013-01-19 09:06:00,39.2,29.2,30.27,WSW,244,6.0,14.0,67,0.00,,,0.00,Wunderground v.1.15,2013-01-19 14:06:00,
2013-01-19 09:10:00,39.5,29.1,30.27,SW,216,2.0,14.0,66,0.00,,,0.00,Wunderground v.1.15,2013-01-19 14:10:00,
2013-01-19 09:11:00,39.5,29.1,30.26,SSW,205,12.0,12.0,66,0.00,,,0.00,Wunderground v.1.15,2013-01-19 14:11:00,
2013-01-19 09:15:00,39.8,29.4,30.26,SW,233,4.0,18.0,66,0.00,,,0.00,Wunderground v.1.15,2013-01-19 14:15:00,
2013-01-19 09:16:00,39.9,29.5,30.26,WSW,242,9.0,18.0,66,0.00,,,0.00,Wunderground v.1.15,2013-01-19 14:16:00,
2013-01-19 09:20:00,40.0,29.6,30.26,SSW,200,11.0,13.0,66,0.00,,,0.00,Wunderground v.1.15,2013-01-19 14:20:00,
2013-01-19 09:22:00,40.2,29.7,30.26,WSW,245,13.0,17.0,66,0.00,,,0.00,Wunderground v.1.15,2013-01-19 14:22:00,
2013-01-19 09:25:00,40.4,29.6,30.26,SW,229,3.0,17.0,65,0.00,,,0.00,Wunderground v.1.15,2013-01-19 14:25:00,
2013-01-19 09:27:00,40.5,29.7,30.26,WSW,243,8.0,17.0,65,0.00,,,0.00,Wunderground v.1.15,2013-01-19 14:27:00,
2013-01-19 09:30:00,40.6,29.7,30.26,SW,219,10.0,19.0,65,0.00,,,0.00,Wunderground v.1.15,2013-01-19 14:30:00,
2013-01-19 09:31:00,40.7,29.8,30.26,SW,228,3.0,19.0,65,0.00,,,0.00,Wunderground v.1.15,2013-01-19 14:31:00,
2013-01-19 09:32:00,40.7,29.8,30.26,WSW,253,7.0,19.0,65,0.00,,,0.00,Wunderground v.1.15,2013-01-19 14:32:00,
2013-01-19 09:35:00,40.8,29.9,30.26,WSW,240,6.0,19.0,65,0.00,,,0.00,Wunderground v.1.15,2013-01-19 14:35:00,
2013-01-19 09:36:00,40.8,29.9,30.26,WSW,258,7.0,19.0,65,0.00,,,0.00,Wunderground v.1.15,2013-01-19 14:36:00,
2013-01-19 09:37:00,40.9,30.0,30.26,South,188,5.0,19.0,65,0.00,,,0.00,Wunderground v.1.15,2013-01-19 14:37:00,
2013-01-19 09:41:00,41.1,29.8,30.26,SW,230,5.0,8.0,64,0.00,,,0.00,Wunderground v.1.15,2013-01-19 14:41:00,
2013-01-19 09:42:00,41.1,30.2,30.26,WSW,241,3.0,8.0,65,0.00,,,0.00,Wunderground v.1.15,2013-01-19 14:42:00,
2013-01-19 09:46:00,41.2,29.9,30.26,WSW,257,2.0,17.0,64,0.00,,,0.00,Wunderground v.1.15,2013-01-19 14:46:00,
2013-01-19 09:47:00,41.2,29.9,30.26,WSW,240,6.0,17.0,64,0.00,,,0.00,Wunderground v.1.15,2013-01-19 14:47:00,
2013-01-19 09:48:00,41.3,30.0,30.26,SW,234,10.0,19.0,64,0.00,,,0.00,Wunderground v.1.15,2013-01-19 14:48:00,
2013-01-19 09:51:00,41.5,30.2,30.26,SW,224,16.0,16.0,64,0.00,,,0.00,Wunderground v.1.15,2013-01-19 14:51:00,
2013-01-19 09:52:00,41.6,30.3,30.26,WSW,238,7.0,21.0,64,0.00,,,0.00,Wunderground v.1.15,2013-01-19 14:52:00,
2013-01-19 09:53:00,41.6,30.3,30.26,SW,220,6.0,21.0,64,0.00,,,0.00,Wunderground v.1.15,2013-01-19 14:53:00,
2013-01-19 09:56:00,41.9,30.6,30.26,South,186,5.0,21.0,64,0.00,,,0.00,Wunderground v.1.15,2013-01-19 14:56:00,
2013-01-19 09:57:00,42.0,30.3,30.26,SW,232,19.0,21.0,63,0.00,,,0.00,Wunderground v.1.15,2013-01-19 14:57:00,
2013-01-19 09:58:00,42.0,30.3,30.26,SW,218,9.0,21.0,63,0.00,,,0.00,Wunderground v.1.15,2013-01-19 14:58:00,
2013-01-19 10:01:00,42.3,30.6,30.25,SW,220,10.0,18.0,63,0.00,,,0.00,Wunderground v.1.15,2013-01-19 15:01:00,
2013-01-19 10:02:00,42.3,30.6,30.25,WSW,238,7.0,18.0,63,0.00,,,0.00,Wunderground v.1.15,2013-01-19 15:02:00,
2013-01-19 10:03:00,42.4,30.7,30.25,SSW,195,11.0,18.0,63,0.00,,,0.00,Wunderground v.1.15,2013-01-19 15:03:00,
2013-01-19 10:07:00,42.5,30.4,30.26,SSW,213,14.0,18.0,62,0.00,,,0.00,Wunderground v.1.15,2013-01-19 15:07:00,
2013-01-19 10:08:00,42.6,30.5,30.26,WSW,238,6.0,20.0,62,0.00,,,0.00,Wunderground v.1.15,2013-01-19 15:08:00,
2013-01-19 10:12:00,42.7,30.6,30.26,SW,217,10.0,11.0,62,0.00,,,0.00,Wunderground v.1.15,2013-01-19 15:12:00,
2013-01-19 10:13:00,42.8,30.7,30.26,WSW,255,4.0,16.0,62,0.00,,,0.00,Wunderground v.1.15,2013-01-19 15:13:00,
2013-01-19 10:14:00,42.9,30.8,30.26,WSW,248,4.0,16.0,62,0.00,,,0.00,Wunderground v.1.15,2013-01-19 15:14:00,
2013-01-19 10:17:00,43.1,30.6,30.26,West,263,15.0,21.0,61,0.00,,,0.00,Wunderground v.1.15,2013-01-19 15:17:00,
2013-01-19 10:18:00,43.2,31.1,30.26,SSW,209,5.0,21.0,62,0.00,,,0.00,Wunderground v.1.15,2013-01-19 15:18:00,
2013-01-19 10:19:00,43.2,31.1,30.26,SW,230,11.0,21.0,62,0.00,,,0.00,Wunderground v.1.15,2013-01-19 15:19:00,
2013-01-19 10:22:00,43.6,31.0,30.26,SW,217,9.0,15.0,61,0.00,,,0.00,Wunderground v.1.15,2013-01-19 15:22:00,
2013-01-19 10:23:00,43.7,31.1,30.26,SSW,200,10.0,17.0,61,0.00,,,0.00,Wunderground v.1.15,2013-01-19 15:23:00,
2013-01-19 10:24:00,43.7,31.1,30.26,WSW,253,7.0,17.0,61,0.00,,,0.00,Wunderground v.1.15,2013-01-19 15:24:00,
2013-01-19 10:27:00,43.8,30.8,30.26,WSW,242,11.0,18.0,60,0.00,,,0.00,Wunderground v.1.15,2013-01-19 15:27:00,
2013-01-19 10:28:00,43.9,30.9,30.26,WSW,257,6.0,18.0,60,0.00,,,0.00,Wunderground v.1.15,2013-01-19 15:28:00,
2013-01-19 10:29:00,43.9,30.9,30.26,SSW,195,10.0,18.0,60,0.00,,,0.00,Wunderground v.1.15,2013-01-19 15:29:00,
2013-01-19 10:33:00,44.2,31.6,30.25,West,267,7.0,13.0,61,0.00,,,0.00,Wunderground v.1.15,2013-01-19 15:33:00,
2013-01-19 10:34:00,44.3,31.7,30.25,WSW,257,6.0,14.0,61,0.00,,,0.00,Wunderground v.1.15,2013-01-19 15:34:00,
2013-01-19 10:38:00,44.6,31.6,30.25,WSW,238,7.0,16.0,60,0.00,,,0.00,Wunderground v.1.15,2013-01-19 15:38:00,
2013-01-19 10:39:00,44.7,31.7,30.25,SW,221,7.0,18.0,60,0.00,,,0.00,Wunderground v.1.15,2013-01-19 15:39:00,
2013-01-19 10:43:00,44.7,31.7,30.25,SW,214,9.0,14.0,60,0.00,,,0.00,Wunderground v.1.15,2013-01-19 15:43:00,
2013-01-19 10:44:00,44.8,31.8,30.25,SW,219,11.0,14.0,60,0.00,,,0.00,Wunderground v.1.15,2013-01-19 15:44:00,
2013-01-19 10:45:00,44.9,31.8,30.25,West,270,5.0,14.0,60,0.00,,,0.00,Wunderground v.1.15,2013-01-19 15:45:00,
2013-01-19 10:48:00,45.0,31.5,30.25,WSW,245,12.0,17.0,59,0.00,,,0.00,Wunderground v.1.15,2013-01-19 15:48:00,
2013-01-19 10:49:00,45.1,31.6,30.25,WSW,246,11.0,19.0,59,0.00,,,0.00,Wunderground v.1.15,2013-01-19 15:49:00,
2013-01-19 10:50:00,45.1,31.6,30.25,WSW,238,13.0,16.0,59,0.00,,,0.00,Wunderground v.1.15,2013-01-19 15:50:00,
2013-01-19 10:53:00,45.3,31.8,30.25,SSW,213,12.0,20.0,59,0.00,,,0.00,Wunderground v.1.15,2013-01-19 15:53:00,
2013-01-19 10:54:00,45.4,31.9,30.24,SSW,213,10.0,20.0,59,0.00,,,0.00,Wunderground v.1.15,2013-01-19 15:54:00,
2013-01-19 10:56:00,45.5,32.0,30.25,SW,227,4.0,20.0,59,0.00,,,0.00,Wunderground v.1.15,2013-01-19 15:56:00,
2013-01-19 10:58:00,45.7,32.2,30.25,WSW,238,14.0,20.0,59,0.00,,,0.00,Wunderground v.1.15,2013-01-19 15:58:00,
2013-01-19 10:59:00,45.8,31.9,30.24,WSW,251,11.0,21.0,58,0.00,,,0.00,Wunderground v.1.15,2013-01-19 15:59:00,
2013-01-19 11:01:00,45.8,31.9,30.24,WSW,238,12.0,13.0,58,0.00,,,0.00,Wunderground v.1.15,2013-01-19 16:01:00,
2013-01-19 11:03:00,45.9,31.9,30.24,SSW,205,8.0,14.0,58,0.00,,,0.00,Wunderground v.1.15,2013-01-19 16:03:00,
2013-01-19 11:04:00,46.0,32.5,30.24,SSW,211,15.0,15.0,59,0.00,,,0.00,Wunderground v.1.15,2013-01-19 16:04:00,
2013-01-19 11:05:00,46.0,32.0,30.24,SW,229,11.0,15.0,58,0.00,,,0.00,Wunderground v.1.15,2013-01-19 16:05:00,
2013-01-19 11:06:00,46.1,32.1,30.24,WSW,242,13.0,23.0,58,0.00,,,0.00,Wunderground v.1.15,2013-01-19 16:06:00,
2013-01-19 11:08:00,46.4,32.0,30.24,SSW,200,15.0,23.0,57,0.00,,,0.00,Wunderground v.1.15,2013-01-19 16:08:00,
2013-01-19 11:09:00,46.5,32.1,30.24,SW,224,4.0,23.0,57,0.00,,,0.00,Wunderground v.1.15,2013-01-19 16:09:00,
2013-01-19 11:10:00,46.5,32.1,30.24,SW,224,3.0,10.0,57,0.00,,,0.00,Wunderground v.1.15,2013-01-19 16:10:00,
2013-01-19 11:11:00,46.6,32.2,30.23,SW,228,16.0,20.0,57,0.00,,,0.00,Wunderground v.1.15,2013-01-19 16:11:00,
2013-01-19 11:13:00,46.7,31.8,30.24,SW,229,12.0,22.0,56,0.00,,,0.00,Wunderground v.1.15,2013-01-19 16:13:00,
2013-01-19 11:15:00,46.7,31.8,30.23,SW,228,12.0,22.0,56,0.00,,,0.00,Wunderground v.1.15,2013-01-19 16:15:00,
2013-01-19 11:16:00,46.8,31.9,30.23,SW,234,22.0,22.0,56,0.00,,,0.00,Wunderground v.1.15,2013-01-19 16:16:00,
2013-01-19 11:18:00,46.8,31.9,30.23,SW,232,5.0,22.0,56,0.00,,,0.00,Wunderground v.1.15,2013-01-19 16:18:00,
2013-01-19 11:20:00,46.9,32.4,30.23,SW,224,11.0,13.0,57,0.00,,,0.00,Wunderground v.1.15,2013-01-19 16:20:00,
2013-01-19 11:21:00,47.0,32.5,30.23,WSW,250,4.0,15.0,57,0.00,,,0.00,Wunderground v.1.15,2013-01-19 16:21:00,
2013-01-19 11:23:00,47.2,32.3,30.23,WSW,237,15.0,19.0,56,0.00,,,0.00,Wunderground v.1.15,2013-01-19 16:23:00,
2013-01-19 11:25:00,47.4,32.0,30.23,SW,230,6.0,19.0,55,0.00,,,0.00,Wunderground v.1.15,2013-01-19 16:25:00,
2013-01-19 11:27:00,47.4,32.0,30.22,WSW,243,17.0,24.0,55,0.00,,,0.00,Wunderground v.1.15,2013-01-19 16:27:00,
2013-01-19 11:28:00,47.4,32.0,30.22,WSW,242,6.0,24.0,55,0.00,,,0.00,Wunderground v.1.15,2013-01-19 16:28:00,
2013-01-19 11:30:00,47.5,32.1,30.22,WSW,238,16.0,19.0,55,0.00,,,0.00,Wunderground v.1.15,2013-01-19 16:30:00,
2013-01-19 11:32:00,47.5,32.1,30.22,SW,228,15.0,23.0,55,0.00,,,0.00,Wunderground v.1.15,2013-01-19 16:32:00,
2013-01-19 11:33:00,47.5,32.1,30.22,SW,234,6.0,23.0,55,0.00,,,0.00,Wunderground v.1.15,2013-01-19 16:33:00,
2013-01-19 11:35:00,47.6,32.2,30.22,WSW,247,15.0,23.0,55,0.00,,,0.00,Wunderground v.1.15,2013-01-19 16:35:00,
2013-01-19 11:37:00,47.7,32.3,30.22,SW,232,14.0,23.0,55,0.00,,,0.00,Wunderground v.1.15,2013-01-19 16:37:00,
2013-01-19 11:38:00,47.9,32.5,30.22,SSW,195,16.0,23.0,55,0.00,,,0.00,Wunderground v.1.15,2013-01-19 16:38:00,
2013-01-19 11:40:00,48.1,32.2,30.21,South,177,13.0,15.0,54,0.00,,,0.00,Wunderground v.1.15,2013-01-19 16:40:00,
2013-01-19 11:42:00,48.3,33.3,30.21,SW,230,15.0,20.0,56,0.00,,,0.00,Wunderground v.1.15,2013-01-19 16:42:00,
2013-01-19 11:44:00,48.4,32.5,30.21,WSW,255,7.0,20.0,54,0.00,,,0.00,Wunderground v.1.15,2013-01-19 16:44:00,
2013-01-19 11:45:00,48.5,32.1,30.21,WSW,244,14.0,22.0,53,0.00,,,0.00,Wunderground v.1.15,2013-01-19 16:45:00,
2013-01-19 11:47:00,48.6,31.8,30.21,SW,224,14.0,24.0,52,0.00,,,0.00,Wunderground v.1.15,2013-01-19 16:47:00,
2013-01-19 11:49:00,48.7,32.3,30.21,WSW,256,15.0,24.0,53,0.00,,,0.00,Wunderground v.1.15,2013-01-19 16:49:00,
2013-01-19 11:50:00,48.7,32.3,30.21,WSW,251,15.0,18.0,53,0.00,,,0.00,Wunderground v.1.15,2013-01-19 16:50:00,
2013-01-19 11:51:00,48.7,32.3,30.20,WSW,245,10.0,18.0,53,0.00,,,0.00,Wunderground v.1.15,2013-01-19 16:51:00,
2013-01-19 11:52:00,48.7,32.3,30.20,SW,232,12.0,18.0,53,0.00,,,0.00,Wunderground v.1.15,2013-01-19 16:52:00,
2013-01-19 11:54:00,49.0,32.1,30.20,WSW,250,11.0,20.0,52,0.00,,,0.00,Wunderground v.1.15,2013-01-19 16:54:00,
2013-01-19 11:55:00,49.0,32.6,30.20,WSW,244,16.0,20.0,53,0.00,,,0.00,Wunderground v.1.15,2013-01-19 16:55:00,
2013-01-19 11:57:00,49.2,32.8,30.20,SW,218,14.0,20.0,53,0.00,,,0.00,Wunderground v.1.15,2013-01-19 16:57:00,
2013-01-19 12:00:00,49.4,32.0,30.20,SW,217,14.0,21.0,51,0.00,,,0.00,Wunderground v.1.15,2013-01-19 17:00:00,
2013-01-19 12:01:00,49.4,32.0,30.20,WSW,255,8.0,21.0,51,0.00,,,0.00,Wunderground v.1.15,2013-01-19 17:01:00,
2013-01-19 12:02:00,49.5,32.1,30.20,South,172,7.0,21.0,51,0.00,,,0.00,Wunderground v.1.15,2013-01-19 17:02:00,
2013-01-19 12:05:00,49.8,32.4,30.20,SW,222,18.0,21.0,51,0.00,,,0.00,Wunderground v.1.15,2013-01-19 17:05:00,
2013-01-19 12:06:00,49.9,32.5,30.19,SSW,195,17.0,21.0,51,0.00,,,0.00,Wunderground v.1.15,2013-01-19 17:06:00,
2013-01-19 12:07:00,49.9,32.0,30.19,SW,229,16.0,22.0,50,0.00,,,0.00,Wunderground v.1.15,2013-01-19 17:07:00,
2013-01-19 12:08:00,50.0,32.1,30.19,SW,236,12.0,22.0,50,0.00,,,0.00,Wunderground v.1.15,2013-01-19 17:08:00,
2013-01-19 12:11:00,50.3,32.8,30.19,WSW,251,3.0,16.0,51,0.00,,,0.00,Wunderground v.1.15,2013-01-19 17:11:00,
2013-01-19 12:12:00,50.3,32.8,30.19,WSW,243,6.0,16.0,51,0.00,,,0.00,Wunderground v.1.15,2013-01-19 17:12:00,
2013-01-19 12:17:00,50.8,32.3,30.18,WSW,256,11.0,21.0,49,0.00,,,0.00,Wunderground v.1.15,2013-01-19 17:17:00,
2013-01-19 12:19:00,50.9,32.4,30.18,SW,226,18.0,21.0,49,0.00,,,0.00,Wunderground v.1.15,2013-01-19 17:19:00,
2013-01-19 12:23:00,50.9,32.4,30.18,WSW,245,11.0,16.0,49,0.00,,,0.00,Wunderground v.1.15,2013-01-19 17:23:00,
2013-01-19 12:25:00,51.0,31.5,30.18,SW,219,17.0,20.0,47,0.00,,,0.00,Wunderground v.1.15,2013-01-19 17:25:00,
2013-01-19 12:28:00,51.0,32.0,30.18,SW,233,13.0,20.0,48,0.00,,,0.00,Wunderground v.1.15,2013-01-19 17:28:00,
2013-01-19 12:30:00,51.0,31.5,30.17,SW,220,12.0,17.0,47,0.00,,,0.00,Wunderground v.1.15,2013-01-19 17:30:00,
2013-01-19 12:34:00,51.3,32.3,30.17,SW,236,9.0,19.0,48,0.00,,,0.00,Wunderground v.1.15,2013-01-19 17:34:00,
2013-01-19 12:35:00,51.4,31.8,30.17,South,170,8.0,19.0,47,0.00,,,0.00,Wunderground v.1.15,2013-01-19 17:35:00,
2013-01-19 12:39:00,51.6,32.0,30.17,WSW,246,17.0,22.0,47,0.00,,,0.00,Wunderground v.1.15,2013-01-19 17:39:00,
2013-01-19 12:40:00,51.7,32.1,30.16,SW,230,13.0,15.0,47,0.00,,,0.00,Wunderground v.1.15,2013-01-19 17:40:00,
2013-01-19 12:44:00,51.7,32.1,30.16,SW,218,9.0,21.0,47,0.00,,,0.00,Wunderground v.1.15,2013-01-19 17:44:00,
2013-01-19 12:47:00,51.9,32.3,30.16,WSW,242,10.0,23.0,47,0.00,,,0.00,Wunderground v.1.15,2013-01-19 17:47:00,
2013-01-19 12:49:00,52.1,32.5,30.16,SW,218,6.0,23.0,47,0.00,,,0.00,Wunderground v.1.15,2013-01-19 17:49:00,
2013-01-19 12:52:00,52.4,32.7,30.16,SW,223,10.0,20.0,47,0.00,,,0.00,Wunderground v.1.15,2013-01-19 17:52:00,
2013-01-19 12:54:00,52.3,32.1,30.15,SW,222,12.0,20.0,46,0.00,,,0.00,Wunderground v.1.15,2013-01-19 17:54:00,
2013-01-19 12:58:00,52.4,32.2,30.15,WSW,249,12.0,20.0,46,0.00,,,0.00,Wunderground v.1.15,2013-01-19 17:58:00,
2013-01-19 12:59:00,52.4,32.7,30.15,SW,229,5.0,20.0,47,0.00,,,0.00,Wunderground v.1.15,2013-01-19 17:59:00,
2013-01-19 13:03:00,52.9,33.2,30.14,SW,231,10.0,19.0,47,0.00,,,0.00,Wunderground v.1.15,2013-01-19 18:03:00,
2013-01-19 13:05:00,53.1,32.8,30.15,SW,224,21.0,21.0,46,0.00,,,0.00,Wunderground v.1.15,2013-01-19 18:05:00,
2013-01-19 13:09:00,53.1,32.8,30.14,SW,222,10.0,21.0,46,0.00,,,0.00,Wunderground v.1.15,2013-01-19 18:09:00,
2013-01-19 13:10:00,53.1,32.8,30.14,SSW,195,6.0,11.0,46,0.00,,,0.00,Wunderground v.1.15,2013-01-19 18:10:00,
2013-01-19 13:15:00,53.2,32.9,30.14,SW,232,17.0,22.0,46,0.00,,,0.00,Wunderground v.1.15,2013-01-19 18:15:00,
2013-01-19 13:20:00,52.9,32.7,30.14,SW,218,5.0,12.0,46,0.00,,,0.00,Wunderground v.1.15,2013-01-19 18:20:00,
2013-01-19 13:25:00,52.8,32.6,30.13,WSW,247,11.0,17.0,46,0.00,,,0.00,Wunderground v.1.15,2013-01-19 18:25:00,
2013-01-19 13:26:00,52.8,33.1,30.13,WSW,256,15.0,17.0,47,0.00,,,0.00,Wunderground v.1.15,2013-01-19 18:26:00,
2013-01-19 13:30:00,53.2,32.9,30.13,SSW,211,15.0,15.0,46,0.00,,,0.00,Wunderground v.1.15,2013-01-19 18:30:00,
2013-01-19 13:31:00,53.2,33.5,30.13,SW,221,19.0,19.0,47,0.00,,,0.00,Wunderground v.1.15,2013-01-19 18:31:00,
2013-01-19 13:35:00,53.5,32.7,30.12,SSW,213,17.0,20.0,45,0.00,,,0.00,Wunderground v.1.15,2013-01-19 18:35:00,
2013-01-19 13:36:00,53.5,33.2,30.12,WSW,245,10.0,20.0,46,0.00,,,0.00,Wunderground v.1.15,2013-01-19 18:36:00,
2013-01-19 13:41:00,53.5,32.7,30.12,WSW,244,10.0,14.0,45,0.00,,,0.00,Wunderground v.1.15,2013-01-19 18:41:00,
2013-01-19 13:42:00,53.5,33.2,30.12,SW,222,13.0,19.0,46,0.00,,,0.00,Wunderground v.1.15,2013-01-19 18:42:00,
2013-01-19 13:46:00,53.8,34.0,30.12,SSW,205,14.0,19.0,47,0.00,,,0.00,Wunderground v.1.15,2013-01-19 18:46:00,
2013-01-19 13:48:00,54.1,33.8,30.12,WNW,286,17.0,19.0,46,0.00,,,0.00,Wunderground v.1.15,2013-01-19 18:48:00,
2013-01-19 13:51:00,54.3,33.4,30.11,SSW,205,6.0,13.0,45,0.00,,,0.00,Wunderground v.1.15,2013-01-19 18:51:00,
2013-01-19 13:53:00,54.5,34.1,30.11,SSW,195,10.0,13.0,46,0.00,,,0.00,Wunderground v.1.15,2013-01-19 18:53:00,
2013-01-19 13:56:00,54.8,33.8,30.11,WSW,243,10.0,20.0,45,0.00,,,0.00,Wunderground v.1.15,2013-01-19 18:56:00,
2013-01-19 13:58:00,54.8,33.8,30.11,WSW,241,18.0,20.0,45,0.00,,,0.00,Wunderground v.1.15,2013-01-19 18:58:00,
2013-01-19 14:02:00,54.6,33.1,30.10,WSW,237,14.0,20.0,44,0.00,,,0.00,Wunderground v.1.15,2013-01-19 19:02:00,
2013-01-19 14:03:00,54.6,33.1,30.11,SW,231,9.0,22.0,44,0.00,,,0.00,Wunderground v.1.15,2013-01-19 19:03:00,
2013-01-19 14:07:00,54.7,33.2,30.10,WSW,243,10.0,22.0,44,0.00,,,0.00,Wunderground v.1.15,2013-01-19 19:07:00,
2013-01-19 14:09:00,54.8,33.8,30.10,SSW,205,14.0,22.0,45,0.00,,,0.00,Wunderground v.1.15,2013-01-19 19:09:00,
2013-01-19 14:13:00,55.1,33.6,30.10,West,259,20.0,21.0,44,0.00,,,0.00,Wunderground v.1.15,2013-01-19 19:13:00,
2013-01-19 14:14:00,55.2,34.2,30.10,SSW,200,4.0,21.0,45,0.00,,,0.00,Wunderground v.1.15,2013-01-19 19:14:00,
2013-01-19 14:18:00,55.6,34.0,30.09,WSW,249,13.0,21.0,44,0.00,,,0.00,Wunderground v.1.15,2013-01-19 19:18:00,
2013-01-19 14:20:00,55.7,33.5,30.09,SW,226,12.0,12.0,43,0.00,,,0.00,Wunderground v.1.15,2013-01-19 19:20:00,
2013-01-19 14:25:00,55.6,34.0,30.09,WSW,256,10.0,23.0,44,0.00,,,0.00,Wunderground v.1.15,2013-01-19 19:25:00,
2013-01-19 14:30:00,55.5,33.9,30.09,South,185,19.0,19.0,44,0.00,,,0.00,Wunderground v.1.15,2013-01-19 19:30:00,
2013-01-19 14:35:00,55.6,32.8,30.09,WSW,238,17.0,23.0,42,0.00,,,0.00,Wunderground v.1.15,2013-01-19 19:35:00,
2013-01-19 14:40:00,55.6,33.4,30.08,South,178,9.0,12.0,43,0.00,,,0.00,Wunderground v.1.15,2013-01-19 19:40:00,
2013-01-19 14:45:00,56.1,33.9,30.08,SW,220,7.0,17.0,43,0.00,,,0.00,Wunderground v.1.15,2013-01-19 19:45:00,
2013-01-19 14:50:00,56.6,33.8,30.08,WSW,237,11.0,18.0,42,0.00,,,0.00,Wunderground v.1.15,2013-01-19 19:50:00,
2013-01-19 14:55:00,56.6,33.8,30.08,SW,225,9.0,19.0,42,0.00,,,0.00,Wunderground v.1.15,2013-01-19 19:55:00,
2013-01-19 14:56:00,56.6,33.8,30.08,SW,220,9.0,19.0,42,0.00,,,0.00,Wunderground v.1.15,2013-01-19 19:56:00,
2013-01-19 15:01:00,56.6,33.8,30.07,WSW,238,16.0,17.0,42,0.00,,,0.00,Wunderground v.1.15,2013-01-19 20:01:00,
2013-01-19 15:02:00,56.7,33.8,30.07,WSW,238,18.0,18.0,42,0.00,,,0.00,Wunderground v.1.15,2013-01-19 20:02:00,
2013-01-19 15:06:00,56.5,33.1,30.07,SSW,205,11.0,20.0,41,0.00,,,0.00,Wunderground v.1.15,2013-01-19 20:06:00,
2013-01-19 15:08:00,56.4,33.0,30.07,SSW,205,16.0,20.0,41,0.00,,,0.00,Wunderground v.1.15,2013-01-19 20:08:00,
2013-01-19 15:12:00,56.2,33.4,30.07,WSW,252,9.0,20.0,42,0.00,,,0.00,Wunderground v.1.15,2013-01-19 20:12:00,
2013-01-19 15:13:00,56.3,33.5,30.07,WSW,257,11.0,20.0,42,0.00,,,0.00,Wunderground v.1.15,2013-01-19 20:13:00,
2013-01-19 15:17:00,56.2,33.4,30.06,WSW,246,7.0,23.0,42,0.00,,,0.00,Wunderground v.1.15,2013-01-19 20:17:00,
2013-01-19 15:19:00,56.4,33.6,30.06,West,259,9.0,23.0,42,0.00,,,0.00,Wunderground v.1.15,2013-01-19 20:19:00,
2013-01-19 15:22:00,56.4,33.0,30.06,WSW,244,2.0,19.0,41,0.00,,,0.00,Wunderground v.1.15,2013-01-19 20:22:00,
2013-01-19 15:25:00,56.3,32.9,30.06,SSW,213,18.0,19.0,41,0.00,,,0.00,Wunderground v.1.15,2013-01-19 20:25:00,
2013-01-19 15:28:00,56.0,32.6,30.06,West,268,14.0,24.0,41,0.00,,,0.00,Wunderground v.1.15,2013-01-19 20:28:00,
2013-01-19 15:30:00,56.0,33.2,30.06,SSW,211,9.0,13.0,42,0.00,,,0.00,Wunderground v.1.15,2013-01-19 20:30:00,
2013-01-19 15:33:00,56.1,33.3,30.06,SSW,211,17.0,21.0,42,0.00,,,0.00,Wunderground v.1.15,2013-01-19 20:33:00,
2013-01-19 15:35:00,56.2,32.8,30.06,West,261,16.0,21.0,41,0.00,,,0.00,Wunderground v.1.15,2013-01-19 20:35:00,
2013-01-19 15:38:00,56.3,33.5,30.06,South,176,10.0,21.0,42,0.00,,,0.00,Wunderground v.1.15,2013-01-19 20:38:00,
2013-01-19 15:41:00,56.3,32.9,30.06,WSW,244,17.0,23.0,41,0.00,,,0.00,Wunderground v.1.15,2013-01-19 20:41:00,
2013-01-19 15:43:00,56.3,32.9,30.06,SW,222,15.0,23.0,41,0.00,,,0.00,Wunderground v.1.15,2013-01-19 20:43:00,
2013-01-19 15:47:00,56.4,33.0,30.05,West,261,7.0,23.0,41,0.00,,,0.00,Wunderground v.1.15,2013-01-19 20:47:00,
2013-01-19 15:49:00,56.4,33.0,30.05,SW,231,12.0,23.0,41,0.00,,,0.00,Wunderground v.1.15,2013-01-19 20:49:00,
2013-01-19 15:53:00,56.6,33.2,30.04,SW,218,6.0,17.0,41,0.00,,,0.00,Wunderground v.1.15,2013-01-19 20:53:00,
2013-01-19 15:54:00,56.6,33.8,30.05,SW,231,8.0,17.0,42,0.00,,,0.00,Wunderground v.1.15,2013-01-19 20:54:00,
2013-01-19 15:58:00,56.8,33.3,30.05,SSW,205,6.0,17.0,41,0.00,,,0.00,Wunderground v.1.15,2013-01-19 20:58:00,
2013-01-19 15:59:00,56.8,33.3,30.05,SW,234,9.0,17.0,41,0.00,,,0.00,Wunderground v.1.15,2013-01-19 20:59:00,
2013-01-19 16:03:00,56.9,32.8,30.05,WSW,245,7.0,19.0,40,0.00,,,0.00,Wunderground v.1.15,2013-01-19 21:03:00,
2013-01-19 16:05:00,56.7,32.6,30.05,SW,234,11.0,19.0,40,0.00,,,0.00,Wunderground v.1.15,2013-01-19 21:05:00,
2013-01-19 16:09:00,56.7,33.2,30.05,WSW,254,13.0,19.0,41,0.00,,,0.00,Wunderground v.1.15,2013-01-19 21:09:00,
2013-01-19 16:11:00,56.8,33.3,30.05,SSW,213,16.0,17.0,41,0.00,,,0.00,Wunderground v.1.15,2013-01-19 21:11:00,
2013-01-19 16:14:00,56.8,32.7,30.04,SSW,195,16.0,19.0,40,0.00,,,0.00,Wunderground v.1.15,2013-01-19 21:14:00,
2013-01-19 16:17:00,56.8,32.7,30.04,SSW,195,5.0,19.0,40,0.00,,,0.00,Wunderground v.1.15,2013-01-19 21:17:00,
2013-01-19 16:19:00,56.9,32.8,30.04,WSW,237,11.0,19.0,40,0.00,,,0.00,Wunderground v.1.15,2013-01-19 21:19:00,
2013-01-19 16:22:00,56.8,32.7,30.04,WSW,240,10.0,22.0,40,0.00,,,0.00,Wunderground v.1.15,2013-01-19 21:22:00,
2013-01-19 16:25:00,56.7,32.6,30.04,SSW,205,5.0,22.0,40,0.00,,,0.00,Wunderground v.1.15,2013-01-19 21:25:00,
2013-01-19 16:27:00,56.7,33.2,30.04,West,264,13.0,22.0,41,0.00,,,0.00,Wunderground v.1.15,2013-01-19 21:27:00,
2013-01-19 16:30:00,56.5,32.4,30.04,SW,215,7.0,11.0,40,0.00,,,0.00,Wunderground v.1.15,2013-01-19 21:30:00,
2013-01-19 16:32:00,56.4,32.4,30.04,SW,228,13.0,18.0,40,0.00,,,0.00,Wunderground v.1.15,2013-01-19 21:32:00,
2013-01-19 16:35:00,56.4,32.4,30.04,South,176,7.0,19.0,40,0.00,,,0.00,Wunderground v.1.15,2013-01-19 21:35:00,
2013-01-19 16:39:00,56.5,32.4,30.04,WSW,238,10.0,21.0,40,0.00,,,0.00,Wunderground v.1.15,2013-01-19 21:39:00,
2013-01-19 16:41:00,56.4,31.7,30.04,SSW,200,10.0,16.0,39,0.00,,,0.00,Wunderground v.1.15,2013-01-19 21:41:00,
2013-01-19 16:45:00,56.1,32.1,30.04,WSW,241,5.0,18.0,40,0.00,,,0.00,Wunderground v.1.15,2013-01-19 21:45:00,
2013-01-19 16:46:00,56.0,32.0,30.04,South,185,21.0,23.0,40,0.00,,,0.00,Wunderground v.1.15,2013-01-19 21:46:00,
2013-01-19 16:51:00,55.8,32.4,30.03,SW,234,16.0,17.0,41,0.00,,,0.00,Wunderground v.1.15,2013-01-19 21:51:00,
2013-01-19 16:52:00,55.8,32.4,30.03,WSW,246,16.0,22.0,41,0.00,,,0.00,Wunderground v.1.15,2013-01-19 21:52:00,
2013-01-19 16:57:00,55.7,32.3,30.03,South,186,19.0,22.0,41,0.00,,,0.00,Wunderground v.1.15,2013-01-19 21:57:00,
2013-01-19 17:02:00,55.7,32.3,30.03,SW,231,11.0,25.0,41,0.00,,,0.00,Wunderground v.1.15,2013-01-19 22:02:00,
2013-01-19 17:07:00,55.5,32.2,30.03,SW,234,21.0,25.0,41,0.00,,,0.00,Wunderground v.1.15,2013-01-19 22:07:00,
2013-01-19 17:08:00,55.5,32.2,30.03,SW,222,11.0,25.0,41,0.00,,,0.00,Wunderground v.1.15,2013-01-19 22:08:00,
2013-01-19 17:13:00,55.3,32.0,30.02,WSW,245,5.0,17.0,41,0.00,,,0.00,Wunderground v.1.15,2013-01-19 22:13:00,
2013-01-19 17:14:00,55.2,31.9,30.02,SW,227,7.0,17.0,41,0.00,,,0.00,Wunderground v.1.15,2013-01-19 22:14:00,
2013-01-19 17:18:00,55.2,31.9,30.02,WSW,244,24.0,24.0,41,0.00,,,0.00,Wunderground v.1.15,2013-01-19 22:18:00,
2013-01-19 17:20:00,55.0,32.3,30.02,West,267,6.0,11.0,42,0.00,,,0.00,Wunderground v.1.15,2013-01-19 22:20:00,
2013-01-19 17:23:00,54.9,32.2,30.02,SW,222,18.0,19.0,42,0.00,,,0.00,Wunderground v.1.15,2013-01-19 22:23:00,
2013-01-19 17:25:00,54.8,32.1,30.02,SSW,209,10.0,20.0,42,0.00,,,0.00,Wunderground v.1.15,2013-01-19 22:25:00,
2013-01-19 17:28:00,54.7,32.0,30.02,WSW,250,11.0,20.0,42,0.00,,,0.00,Wunderground v.1.15,2013-01-19 22:28:00,
2013-01-19 17:31:00,54.6,31.9,30.02,SSW,213,15.0,16.0,42,0.00,,,0.00,Wunderground v.1.15,2013-01-19 22:31:00,
2013-01-19 17:33:00,54.4,31.8,30.02,SW,219,12.0,18.0,42,0.00,,,0.00,Wunderground v.1.15,2013-01-19 22:33:00,
2013-01-19 17:36:00,54.1,31.5,30.02,SW,220,8.0,18.0,42,0.00,,,0.00,Wunderground v.1.15,2013-01-19 22:36:00,
2013-01-19 17:38:00,53.9,31.9,30.02,West,268,7.0,18.0,43,0.00,,,0.00,Wunderground v.1.15,2013-01-19 22:38:00,
2013-01-19 17:42:00,53.6,31.6,30.02,SSW,195,7.0,21.0,43,0.00,,,0.00,Wunderground v.1.15,2013-01-19 22:42:00,
2013-01-19 17:44:00,53.4,31.4,30.02,WSW,248,11.0,21.0,43,0.00,,,0.00,Wunderground v.1.15,2013-01-19 22:44:00,
2013-01-19 17:47:00,53.2,31.8,30.02,SW,222,11.0,23.0,44,0.00,,,0.00,Wunderground v.1.15,2013-01-19 22:47:00,
2013-01-19 17:49:00,53.1,31.7,30.02,SSW,209,5.0,23.0,44,0.00,,,0.00,Wunderground v.1.15,2013-01-19 22:49:00,
2013-01-19 17:52:00,52.8,31.5,30.02,WSW,248,10.0,12.0,44,0.00,,,0.00,Wunderground v.1.15,2013-01-19 22:52:00,
2013-01-19 17:54:00,52.7,31.4,30.02,SW,221,15.0,21.0,44,0.00,,,0.00,Wunderground v.1.15,2013-01-19 22:54:00,
2013-01-19 17:58:00,52.5,31.2,30.01,WSW,240,14.0,21.0,44,0.00,,,0.00,Wunderground v.1.15,2013-01-19 22:58:00,
2013-01-19 18:00:00,52.4,31.1,30.01,SSW,209,10.0,21.0,44,0.00,,,0.00,Wunderground v.1.15,2013-01-19 23:00:00,
2013-01-19 18:03:00,52.3,31.0,30.01,SW,221,10.0,17.0,44,0.00,,,0.00,Wunderground v.1.15,2013-01-19 23:03:00,
2013-01-19 18:05:00,52.3,31.0,30.01,SW,222,14.0,17.0,44,0.00,,,0.00,Wunderground v.1.15,2013-01-19 23:05:00,
2013-01-19 18:08:00,52.3,31.0,30.01,SSW,195,3.0,17.0,44,0.00,,,0.00,Wunderground v.1.15,2013-01-19 23:08:00,
2013-01-19 18:10:00,52.2,30.9,30.02,SSW,211,9.0,9.0,44,0.00,,,0.00,Wunderground v.1.15,2013-01-19 23:10:00,
2013-01-19 18:14:00,52.1,30.8,30.01,SW,232,9.0,18.0,44,0.00,,,0.00,Wunderground v.1.15,2013-01-19 23:14:00,
2013-01-19 18:15:00,52.1,30.8,30.02,SSW,195,4.0,18.0,44,0.00,,,0.00,Wunderground v.1.15,2013-01-19 23:15:00,
2013-01-19 18:19:00,51.9,30.6,30.01,SW,225,6.0,21.0,44,0.00,,,0.00,Wunderground v.1.15,2013-01-19 23:19:00,
2013-01-19 18:20:00,51.9,30.6,30.01,SW,229,10.0,12.0,44,0.00,,,0.00,Wunderground v.1.15,2013-01-19 23:20:00,
2013-01-19 18:24:00,51.8,31.1,30.01,SW,230,4.0,13.0,45,0.00,,,0.00,Wunderground v.1.15,2013-01-19 23:24:00,
2013-01-19 18:26:00,51.7,31.0,30.02,SW,234,11.0,14.0,45,0.00,,,0.00,Wunderground v.1.15,2013-01-19 23:26:00,
2013-01-19 18:30:00,51.6,30.9,30.01,SW,236,6.0,8.0,45,0.00,,,0.00,Wunderground v.1.15,2013-01-19 23:30:00,
2013-01-19 18:31:00,51.5,30.8,30.01,South,188,7.0,18.0,45,0.00,,,0.00,Wunderground v.1.15,2013-01-19 23:31:00,
2013-01-19 18:35:00,51.5,30.8,30.01,SW,217,15.0,21.0,45,0.00,,,0.00,Wunderground v.1.15,2013-01-19 23:35:00,
2013-01-19 18:37:00,51.4,30.7,30.02,SW,215,6.0,21.0,45,0.00,,,0.00,Wunderground v.1.15,2013-01-19 23:37:00,
2013-01-19 18:40:00,51.4,30.7,30.02,SSW,211,10.0,10.0,45,0.00,,,0.00,Wunderground v.1.15,2013-01-19 23:40:00,
2013-01-19 18:44:00,51.3,30.7,30.01,South,173,12.0,16.0,45,0.00,,,0.00,Wunderground v.1.15,2013-01-19 23:44:00,
2013-01-19 18:45:00,51.3,30.7,30.02,SW,226,10.0,16.0,45,0.00,,,0.00,Wunderground v.1.15,2013-01-19 23:45:00,
2013-01-19 18:49:00,51.3,30.7,30.02,SW,226,10.0,16.0,45,0.00,,,0.00,Wunderground v.1.15,2013-01-19 23:49:00,
2013-01-19 18:52:00,51.3,30.7,30.02,WSW,249,3.0,15.0,45,0.00,,,0.00,Wunderground v.1.15,2013-01-19 23:52:00,
2013-01-19 18:54:00,51.2,30.6,30.02,SSW,200,13.0,17.0,45,0.00,,,0.00,Wunderground v.1.15,2013-01-19 23:54:00,
2013-01-19 18:57:00,51.1,30.5,30.02,WSW,237,5.0,17.0,45,0.00,,,0.00,Wunderground v.1.15,2013-01-19 23:57:00,
2013-01-19 19:00:00,51.1,31.0,30.02,SW,235,5.0,8.0,46,0.00,,,0.00,Wunderground v.1.15,2013-01-20 00:00:00,
2013-01-19 19:03:00,51.0,30.9,30.02,SW,235,2.0,13.0,46,0.00,,,0.00,Wunderground v.1.15,2013-01-20 00:03:00,
2013-01-19 19:07:00,50.9,30.8,30.02,SW,236,13.0,14.0,46,0.00,,,0.00,Wunderground v.1.15,2013-01-20 00:07:00,
2013-01-19 19:08:00,50.8,30.7,30.02,WSW,238,7.0,14.0,46,0.00,,,0.00,Wunderground v.1.15,2013-01-20 00:08:00,
2013-01-19 19:12:00,50.7,30.7,30.03,WSW,255,5.0,14.0,46,0.00,,,0.00,Wunderground v.1.15,2013-01-20 00:12:00,
2013-01-19 19:13:00,50.7,30.7,30.03,WSW,248,5.0,14.0,46,0.00,,,0.00,Wunderground v.1.15,2013-01-20 00:13:00,
2013-01-19 19:17:00,50.5,30.5,30.03,WSW,246,6.0,18.0,46,0.00,,,0.00,Wunderground v.1.15,2013-01-20 00:17:00,
2013-01-19 19:18:00,50.5,30.5,30.03,WSW,242,10.0,18.0,46,0.00,,,0.00,Wunderground v.1.15,2013-01-20 00:18:00,
2013-01-19 19:22:00,50.4,30.4,30.04,WSW,244,3.0,11.0,46,0.00,,,0.00,Wunderground v.1.15,2013-01-20 00:22:00,
2013-01-19 19:24:00,50.4,30.4,30.04,West,260,6.0,11.0,46,0.00,,,0.00,Wunderground v.1.15,2013-01-20 00:24:00,
2013-01-19 19:27:00,50.2,30.7,30.04,West,264,7.0,15.0,47,0.00,,,0.00,Wunderground v.1.15,2013-01-20 00:27:00,
2013-01-19 19:29:00,50.2,30.7,30.04,WSW,255,4.0,15.0,47,0.00,,,0.00,Wunderground v.1.15,2013-01-20 00:29:00,
2013-01-19 19:32:00,50.1,30.6,30.05,WSW,242,4.0,6.0,47,0.00,,,0.00,Wunderground v.1.15,2013-01-20 00:32:00,
2013-01-19 19:34:00,50.0,30.5,30.05,SW,219,5.0,7.0,47,0.00,,,0.00,Wunderground v.1.15,2013-01-20 00:34:00,
2013-01-19 19:38:00,49.9,30.5,30.05,WSW,254,7.0,11.0,47,0.00,,,0.00,Wunderground v.1.15,2013-01-20 00:38:00,
2013-01-19 19:39:00,49.9,31.0,30.05,WSW,238,6.0,13.0,48,0.00,,,0.00,Wunderground v.1.15,2013-01-20 00:39:00,
2013-01-19 19:43:00,49.8,30.9,30.05,WSW,249,4.0,12.0,48,0.00,,,0.00,Wunderground v.1.15,2013-01-20 00:43:00,
2013-01-19 19:45:00,49.7,30.8,30.04,SW,230,6.0,12.0,48,0.00,,,0.00,Wunderground v.1.15,2013-01-20 00:45:00,
2013-01-19 19:48:00,49.6,30.7,30.05,SW,234,14.0,14.0,48,0.00,,,0.00,Wunderground v.1.15,2013-01-20 00:48:00,
2013-01-19 19:50:00,49.8,30.9,30.05,SW,225,5.0,9.0,48,0.00,,,0.00,Wunderground v.1.15,2013-01-20 00:50:00,
2013-01-19 19:53:00,49.8,30.9,30.05,WSW,254,9.0,10.0,48,0.00,,,0.00,Wunderground v.1.15,2013-01-20 00:53:00,
2013-01-19 19:55:00,49.8,30.9,30.05,WSW,246,13.0,13.0,48,0.00,,,0.00,Wunderground v.1.15,2013-01-20 00:55:00,
2013-01-19 19:58:00,49.8,30.9,30.05,WSW,255,10.0,13.0,48,0.00,,,0.00,Wunderground v.1.15,2013-01-20 00:58:00,
2013-01-19 20:01:00,49.9,31.0,30.05,WSW,252,9.0,21.0,48,0.00,,,0.00,Wunderground v.1.15,2013-01-20 01:01:00,
2013-01-19 20:04:00,50.0,31.1,30.05,West,259,4.0,21.0,48,0.00,,,0.00,Wunderground v.1.15,2013-01-20 01:04:00,
2013-01-19 20:06:00,49.9,31.0,30.06,WSW,242,5.0,21.0,48,0.00,,,0.00,Wunderground v.1.15,2013-01-20 01:06:00,
2013-01-19 20:09:00,49.9,31.0,30.05,SW,226,11.0,21.0,48,0.00,,,0.00,Wunderground v.1.15,2013-01-20 01:09:00,
2013-01-19 20:12:00,49.9,31.0,30.05,SW,224,3.0,13.0,48,0.00,,,0.00,Wunderground v.1.15,2013-01-20 01:12:00,
2013-01-19 20:15:00,49.9,31.0,30.05,SW,217,11.0,13.0,48,0.00,,,0.00,Wunderground v.1.15,2013-01-20 01:15:00,
2013-01-19 20:18:00,49.9,31.0,30.05,WSW,240,5.0,17.0,48,0.00,,,0.00,Wunderground v.1.15,2013-01-20 01:18:00,
2013-01-19 20:20:00,49.9,31.0,30.05,SW,229,10.0,11.0,48,0.00,,,0.00,Wunderground v.1.15,2013-01-20 01:20:00,
2013-01-19 20:23:00,49.9,31.0,30.05,WSW,242,12.0,16.0,48,0.00,,,0.00,Wunderground v.1.15,2013-01-20 01:23:00,
2013-01-19 20:25:00,49.8,30.9,30.05,WSW,241,10.0,16.0,48,0.00,,,0.00,Wunderground v.1.15,2013-01-20 01:25:00,
2013-01-19 20:28:00,49.8,31.4,30.05,WSW,256,7.0,16.0,49,0.00,,,0.00,Wunderground v.1.15,2013-01-20 01:28:00,
2013-01-19 20:31:00,49.8,31.4,30.05,WSW,249,7.0,17.0,49,0.00,,,0.00,Wunderground v.1.15,2013-01-20 01:31:00,
2013-01-19 20:33:00,49.8,31.4,30.05,WSW,245,12.0,17.0,49,0.00,,,0.00,Wunderground v.1.15,2013-01-20 01:33:00,
2013-01-19 20:37:00,49.7,31.3,30.05,WSW,248,5.0,17.0,49,0.00,,,0.00,Wunderground v.1.15,2013-01-20 01:37:00,
2013-01-19 20:38:00,49.6,31.2,30.05,SSW,200,6.0,17.0,49,0.00,,,0.00,Wunderground v.1.15,2013-01-20 01:38:00,
2013-01-19 20:42:00,49.5,31.1,30.05,SW,218,4.0,11.0,49,0.00,,,0.00,Wunderground v.1.15,2013-01-20 01:42:00,
2013-01-19 20:43:00,49.4,31.0,30.05,SW,234,11.0,13.0,49,0.00,,,0.00,Wunderground v.1.15,2013-01-20 01:43:00,
2013-01-19 20:47:00,49.4,31.5,30.05,WSW,257,5.0,13.0,50,0.00,,,0.00,Wunderground v.1.15,2013-01-20 01:47:00,
2013-01-19 20:49:00,49.4,31.0,30.05,SW,234,14.0,14.0,49,0.00,,,0.00,Wunderground v.1.15,2013-01-20 01:49:00,
2013-01-19 20:52:00,49.4,31.5,30.05,SW,222,7.0,8.0,50,0.00,,,0.00,Wunderground v.1.15,2013-01-20 01:52:00,
2013-01-19 20:55:00,49.3,31.4,30.05,WSW,258,10.0,12.0,50,0.00,,,0.00,Wunderground v.1.15,2013-01-20 01:55:00,
2013-01-19 20:58:00,49.3,31.4,30.05,WSW,237,7.0,12.0,50,0.00,,,0.00,Wunderground v.1.15,2013-01-20 01:58:00,
2013-01-19 21:01:00,49.3,31.4,30.05,SW,226,12.0,12.0,50,0.00,,,0.00,Wunderground v.1.15,2013-01-20 02:01:00,
2013-01-19 21:03:00,49.3,31.4,30.05,WSW,238,13.0,16.0,50,0.00,,,0.00,Wunderground v.1.15,2013-01-20 02:03:00,
2013-01-19 21:07:00,49.2,31.3,30.05,SW,219,13.0,16.0,50,0.00,,,0.00,Wunderground v.1.15,2013-01-20 02:07:00,
2013-01-19 21:08:00,49.2,31.3,30.05,SW,230,7.0,16.0,50,0.00,,,0.00,Wunderground v.1.15,2013-01-20 02:08:00,
2013-01-19 21:12:00,49.2,31.8,30.05,SW,222,10.0,11.0,51,0.00,,,0.00,Wunderground v.1.15,2013-01-20 02:12:00,
2013-01-19 21:13:00,49.1,31.7,30.05,SW,228,3.0,11.0,51,0.00,,,0.00,Wunderground v.1.15,2013-01-20 02:13:00,
2013-01-19 21:17:00,49.0,31.6,30.05,West,261,4.0,13.0,51,0.00,,,0.00,Wunderground v.1.15,2013-01-20 02:17:00,
2013-01-19 21:20:00,49.0,31.6,30.05,WSW,239,11.0,13.0,51,0.00,,,0.00,Wunderground v.1.15,2013-01-20 02:20:00,
2013-01-19 21:22:00,48.9,31.5,30.05,West,260,6.0,11.0,51,0.00,,,0.00,Wunderground v.1.15,2013-01-20 02:22:00,
2013-01-19 21:25:00,48.8,31.5,30.05,WSW,248,13.0,13.0,51,0.00,,,0.00,Wunderground v.1.15,2013-01-20 02:25:00,
2013-01-19 21:28:00,48.8,31.9,30.04,SSW,205,14.0,14.0,52,0.00,,,0.00,Wunderground v.1.15,2013-01-20 02:28:00,
2013-01-19 21:30:00,48.7,31.8,30.05,WSW,251,8.0,8.0,52,0.00,,,0.00,Wunderground v.1.15,2013-01-20 02:30:00,
2013-01-19 21:33:00,48.7,31.8,30.04,West,260,13.0,13.0,52,0.00,,,0.00,Wunderground v.1.15,2013-01-20 02:33:00,
2013-01-19 21:35:00,48.7,31.8,30.04,SW,215,13.0,13.0,52,0.00,,,0.00,Wunderground v.1.15,2013-01-20 02:35:00,
2013-01-19 21:38:00,48.7,31.8,30.04,SW,227,5.0,14.0,52,0.00,,,0.00,Wunderground v.1.15,2013-01-20 02:38:00,
2013-01-19 21:41:00,48.7,31.8,30.05,WSW,249,6.0,8.0,52,0.00,,,0.00,Wunderground v.1.15,2013-01-20 02:41:00,
2013-01-19 21:43:00,48.7,31.8,30.04,WSW,244,11.0,12.0,52,0.00,,,0.00,Wunderground v.1.15,2013-01-20 02:43:00,
2013-01-19 21:47:00,48.8,31.9,30.05,West,267,9.0,16.0,52,0.00,,,0.00,Wunderground v.1.15,2013-01-20 02:47:00,
2013-01-19 21:48:00,48.8,31.9,30.04,WSW,246,4.0,16.0,52,0.00,,,0.00,Wunderground v.1.15,2013-01-20 02:48:00,
2013-01-19 21:52:00,48.8,31.9,30.05,NW,317,8.0,13.0,52,0.00,,,0.00,Wunderground v.1.15,2013-01-20 02:52:00,
2013-01-19 21:54:00,48.8,31.9,30.05,West,274,6.0,18.0,52,0.00,,,0.00,Wunderground v.1.15,2013-01-20 02:54:00,
2013-01-19 21:57:00,48.7,32.3,30.04,West,269,9.0,18.0,53,0.00,,,0.00,Wunderground v.1.15,2013-01-20 02:57:00,
2013-01-19 21:59:00,48.7,31.8,30.04,West,268,5.0,18.0,52,0.00,,,0.00,Wunderground v.1.15,2013-01-20 02:59:00,
2013-01-19 22:02:00,48.6,32.2,30.05,WSW,250,4.0,10.0,53,0.00,,,0.00,Wunderground v.1.15,2013-01-20 03:02:00,
2013-01-19 22:05:00,48.6,32.2,30.05,WSW,241,8.0,13.0,53,0.00,,,0.00,Wunderground v.1.15,2013-01-20 03:05:00,
2013-01-19 22:07:00,48.6,32.2,30.05,WSW,237,8.0,13.0,53,0.00,,,0.00,Wunderground v.1.15,2013-01-20 03:07:00,
2013-01-19 22:10:00,48.6,32.2,30.04,WSW,251,5.0,8.0,53,0.00,,,0.00,Wunderground v.1.15,2013-01-20 03:10:00,
2013-01-19 22:12:00,48.6,32.2,30.04,West,261,10.0,12.0,53,0.00,,,0.00,Wunderground v.1.15,2013-01-20 03:12:00,
2013-01-19 22:15:00,48.6,32.2,30.05,SW,224,5.0,12.0,53,0.00,,,0.00,Wunderground v.1.15,2013-01-20 03:15:00,
2013-01-19 22:18:00,48.5,32.1,30.04,SW,232,8.0,14.0,53,0.00,,,0.00,Wunderground v.1.15,2013-01-20 03:18:00,
2013-01-19 22:20:00,48.5,32.1,30.05,SW,225,10.0,14.0,53,0.00,,,0.00,Wunderground v.1.15,2013-01-20 03:20:00,
2013-01-19 22:23:00,48.6,32.2,30.05,WSW,253,8.0,15.0,53,0.00,,,0.00,Wunderground v.1.15,2013-01-20 03:23:00,
2013-01-19 22:25:00,48.7,32.3,30.05,West,263,7.0,16.0,53,0.00,,,0.00,Wunderground v.1.15,2013-01-20 03:25:00,
2013-01-19 22:28:00,48.7,32.3,30.05,WSW,238,6.0,18.0,53,0.00,,,0.00,Wunderground v.1.15,2013-01-20 03:28:00,
2013-01-19 22:31:00,48.7,32.3,30.05,West,259,13.0,13.0,53,0.00,,,0.00,Wunderground v.1.15,2013-01-20 03:31:00,
2013-01-19 22:33:00,48.6,32.2,30.05,WSW,241,6.0,13.0,53,0.00,,,0.00,Wunderground v.1.15,2013-01-20 03:33:00,
2013-01-19 22:36:00,48.7,32.3,30.04,WSW,248,9.0,15.0,53,0.00,,,0.00,Wunderground v.1.15,2013-01-20 03:36:00,
2013-01-19 22:38:00,48.7,32.3,30.04,SW,222,6.0,15.0,53,0.00,,,0.00,Wunderground v.1.15,2013-01-20 03:38:00,
2013-01-19 22:42:00,48.5,32.6,30.04,SW,236,9.0,18.0,54,0.00,,,0.00,Wunderground v.1.15,2013-01-20 03:42:00,
2013-01-19 22:44:00,48.5,32.6,30.04,SW,230,13.0,18.0,54,0.00,,,0.00,Wunderground v.1.15,2013-01-20 03:44:00,
2013-01-19 22:47:00,48.7,32.8,30.05,SW,224,13.0,19.0,54,0.00,,,0.00,Wunderground v.1.15,2013-01-20 03:47:00,
2013-01-19 22:50:00,48.8,32.4,30.04,West,265,16.0,16.0,53,0.00,,,0.00,Wunderground v.1.15,2013-01-20 03:50:00,
2013-01-19 22:52:00,48.9,32.5,30.05,SSW,205,13.0,23.0,53,0.00,,,0.00,Wunderground v.1.15,2013-01-20 03:52:00,
2013-01-19 22:55:00,49.0,32.6,30.04,WSW,251,4.0,23.0,53,0.00,,,0.00,Wunderground v.1.15,2013-01-20 03:55:00,
2013-01-19 22:57:00,49.0,32.6,30.05,WSW,247,10.0,23.0,53,0.00,,,0.00,Wunderground v.1.15,2013-01-20 03:57:00,
2013-01-19 23:00:00,49.1,32.7,30.05,West,261,8.0,13.0,53,0.00,,,0.00,Wunderground v.1.15,2013-01-20 04:00:00,
2013-01-19 23:03:00,49.0,32.6,30.05,WSW,252,7.0,22.0,53,0.00,,,0.00,Wunderground v.1.15,2013-01-20 04:03:00,
2013-01-19 23:05:00,49.1,32.7,30.05,SW,222,10.0,22.0,53,0.00,,,0.00,Wunderground v.1.15,2013-01-20 04:05:00,
2013-01-19 23:08:00,49.1,32.7,30.05,WSW,243,8.0,22.0,53,0.00,,,0.00,Wunderground v.1.15,2013-01-20 04:08:00,
2013-01-19 23:10:00,49.1,32.7,30.05,WSW,255,8.0,15.0,53,0.00,,,0.00,Wunderground v.1.15,2013-01-20 04:10:00,
2013-01-19 23:14:00,49.0,32.6,30.05,SW,232,13.0,17.0,53,0.00,,,0.00,Wunderground v.1.15,2013-01-20 04:14:00,
2013-01-19 23:15:00,48.9,32.5,30.05,NW,311,15.0,19.0,53,0.00,,,0.00,Wunderground v.1.15,2013-01-20 04:15:00,
2013-01-19 23:19:00,48.9,32.5,30.05,WSW,241,11.0,25.0,53,0.00,,,0.00,Wunderground v.1.15,2013-01-20 04:19:00,
2013-01-19 23:20:00,48.9,32.5,30.05,West,259,7.0,15.0,53,0.00,,,0.00,Wunderground v.1.15,2013-01-20 04:20:00,
2013-01-19 23:24:00,48.9,32.5,30.05,WSW,258,12.0,15.0,53,0.00,,,0.00,Wunderground v.1.15,2013-01-20 04:24:00,
2013-01-19 23:26:00,48.9,32.5,30.06,WSW,252,16.0,19.0,53,0.00,,,0.00,Wunderground v.1.15,2013-01-20 04:26:00,
2013-01-19 23:29:00,48.9,33.0,30.06,WSW,246,15.0,19.0,54,0.00,,,0.00,Wunderground v.1.15,2013-01-20 04:29:00,
2013-01-19 23:32:00,48.7,32.8,30.06,WSW,255,13.0,13.0,54,0.00,,,0.00,Wunderground v.1.15,2013-01-20 04:32:00,
2013-01-19 23:34:00,48.6,32.7,30.06,WSW,245,10.0,15.0,54,0.00,,,0.00,Wunderground v.1.15,2013-01-20 04:34:00,
2013-01-19 23:37:00,48.6,32.7,30.06,West,279,13.0,16.0,54,0.00,,,0.00,Wunderground v.1.15,2013-01-20 04:37:00,
2013-01-19 23:39:00,48.6,32.7,30.06,WSW,251,19.0,19.0,54,0.00,,,0.00,Wunderground v.1.15,2013-01-20 04:39:00,
2013-01-19 23:43:00,48.7,32.8,30.06,WSW,253,10.0,17.0,54,0.00,,,0.00,Wunderground v.1.15,2013-01-20 04:43:00,
2013-01-19 23:45:00,48.7,32.8,30.06,West,273,8.0,17.0,54,0.00,,,0.00,Wunderground v.1.15,2013-01-20 04:45:00,
2013-01-19 23:47:00,48.7,32.8,30.06,WSW,240,7.0,18.0,54,0.00,,,0.00,Wunderground v.1.15,2013-01-20 04:47:00,
2013-01-19 23:50:00,48.7,33.2,30.06,WSW,240,13.0,13.0,55,0.00,,,0.00,Wunderground v.1.15,2013-01-20 04:50:00,
2013-01-19 23:53:00,48.6,33.1,30.06,West,272,7.0,15.0,55,0.00,,,0.00,Wunderground v.1.15,2013-01-20 04:53:00,
2013-01-19 23:55:00,48.5,33.1,30.05,SW,234,18.0,20.0,55,0.00,,,0.00,Wunderground v.1.15,2013-01-20 04:55:00,
2013-01-19 23:58:00,48.4,33.0,30.05,WNW,283,8.0,23.0,55,0.00,,,0.00,Wunderground v.1.15,2013-01-20 04:58:00,